<?xml version="1.0" encoding="UTF-8" standalone="no" ?>
<gpx xmlns="http://www.topografix.com/GPX/1/1" xmlns:xsi="http://www.w3.org/2001/XMLSchema-instance" xsi:schemaLocation="http://www.topografix.com/GPX/1/1 http://www.topografix.com/GPX/1/1/gpx.xsd" version="1.1" creator="VisuGPX - https://www.visugpx.com">
  <metadata>
    <name>Oppidum de Nages</name>
    <desc><![CDATA[Oppidum de Nages, depuis le petit parking de la fontaine romaine.

#ombre #court #enregistré]]></desc>
  </metadata>
  <trk>
    <name><![CDATA[2026-05-02 09:45]]></name>
    <extensions>
      <line xmlns="http://www.topografix.com/GPX/gpx_style/0/2">
        <color>0000FF</color>
        <opacity>0.59</opacity>
        <width>6.0</width>
      </line>
    </extensions>
    <trkseg>
      <trkpt lat="43.7931" lon="4.23132">
        <ele>89.01</ele>
        <time>2026-05-02T07:45:45.191Z</time>
      </trkpt>
      <trkpt lat="43.7931" lon="4.23133">
        <ele>77</ele>
        <time>2026-05-02T07:45:53.190Z</time>
      </trkpt>
      <trkpt lat="43.7931" lon="4.23135">
        <ele>84.58</ele>
        <time>2026-05-02T07:45:59.385Z</time>
      </trkpt>
      <trkpt lat="43.79314" lon="4.23142">
        <ele>74.63</ele>
        <time>2026-05-02T07:46:05.069Z</time>
      </trkpt>
      <trkpt lat="43.79318" lon="4.23143">
        <ele>80.73</ele>
        <time>2026-05-02T07:46:10.354Z</time>
      </trkpt>
      <trkpt lat="43.79322" lon="4.23143">
        <ele>77.22</ele>
        <time>2026-05-02T07:46:16.328Z</time>
      </trkpt>
      <trkpt lat="43.79327" lon="4.23141">
        <ele>79.6</ele>
        <time>2026-05-02T07:46:21.772Z</time>
      </trkpt>
      <trkpt lat="43.79331" lon="4.23137">
        <ele>83.79</ele>
        <time>2026-05-02T07:46:27.327Z</time>
      </trkpt>
      <trkpt lat="43.79336" lon="4.23133">
        <ele>87.73</ele>
        <time>2026-05-02T07:46:32.934Z</time>
      </trkpt>
      <trkpt lat="43.79343" lon="4.23133">
        <ele>82.21</ele>
        <time>2026-05-02T07:46:38.370Z</time>
      </trkpt>
      <trkpt lat="43.79348" lon="4.23133">
        <ele>89.87</ele>
        <time>2026-05-02T07:46:44.005Z</time>
      </trkpt>
      <trkpt lat="43.79352" lon="4.23135">
        <ele>89.87</ele>
        <time>2026-05-02T07:46:49.311Z</time>
      </trkpt>
      <trkpt lat="43.79356" lon="4.23136">
        <ele>89.87</ele>
        <time>2026-05-02T07:46:54.327Z</time>
      </trkpt>
      <trkpt lat="43.79359" lon="4.23136">
        <ele>91.93</ele>
        <time>2026-05-02T07:46:59.987Z</time>
      </trkpt>
      <trkpt lat="43.7936" lon="4.23138">
        <ele>93.57</ele>
        <time>2026-05-02T07:47:05.305Z</time>
      </trkpt>
      <trkpt lat="43.79363" lon="4.23138">
        <ele>93.94</ele>
        <time>2026-05-02T07:47:11.085Z</time>
      </trkpt>
      <trkpt lat="43.79367" lon="4.23135">
        <ele>92.89</ele>
        <time>2026-05-02T07:47:16.311Z</time>
      </trkpt>
      <trkpt lat="43.7937" lon="4.23134">
        <ele>95.24</ele>
        <time>2026-05-02T07:47:21.326Z</time>
      </trkpt>
      <trkpt lat="43.79374" lon="4.23131">
        <ele>95.11</ele>
        <time>2026-05-02T07:47:26.886Z</time>
      </trkpt>
      <trkpt lat="43.79379" lon="4.23128">
        <ele>95.34</ele>
        <time>2026-05-02T07:47:32.365Z</time>
      </trkpt>
      <trkpt lat="43.79384" lon="4.23125">
        <ele>95.45</ele>
        <time>2026-05-02T07:47:38.147Z</time>
      </trkpt>
      <trkpt lat="43.79389" lon="4.23124">
        <ele>107.31</ele>
        <time>2026-05-02T07:47:43.148Z</time>
      </trkpt>
      <trkpt lat="43.79393" lon="4.2312">
        <ele>95.93</ele>
        <time>2026-05-02T07:47:48.616Z</time>
      </trkpt>
      <trkpt lat="43.79399" lon="4.23118">
        <ele>99.11</ele>
        <time>2026-05-02T07:47:54.117Z</time>
      </trkpt>
      <trkpt lat="43.79402" lon="4.23119">
        <ele>107.26</ele>
        <time>2026-05-02T07:47:59.442Z</time>
      </trkpt>
      <trkpt lat="43.79408" lon="4.23118">
        <ele>107.27</ele>
        <time>2026-05-02T07:48:05.302Z</time>
      </trkpt>
      <trkpt lat="43.79415" lon="4.23118">
        <ele>95.15</ele>
        <time>2026-05-02T07:48:10.703Z</time>
      </trkpt>
      <trkpt lat="43.79419" lon="4.23117">
        <ele>99.89</ele>
        <time>2026-05-02T07:48:15.861Z</time>
      </trkpt>
      <trkpt lat="43.79423" lon="4.23119">
        <ele>106.57</ele>
        <time>2026-05-02T07:48:21.343Z</time>
      </trkpt>
      <trkpt lat="43.79428" lon="4.23121">
        <ele>107.95</ele>
        <time>2026-05-02T07:48:26.349Z</time>
      </trkpt>
      <trkpt lat="43.79434" lon="4.23122">
        <ele>109.55</ele>
        <time>2026-05-02T07:48:31.903Z</time>
      </trkpt>
      <trkpt lat="43.7944" lon="4.23122">
        <ele>98.12</ele>
        <time>2026-05-02T07:48:37.300Z</time>
      </trkpt>
      <trkpt lat="43.79445" lon="4.23124">
        <ele>97.88</ele>
        <time>2026-05-02T07:48:42.332Z</time>
      </trkpt>
      <trkpt lat="43.79448" lon="4.23126">
        <ele>98.65</ele>
        <time>2026-05-02T07:48:47.420Z</time>
      </trkpt>
      <trkpt lat="43.79454" lon="4.23126">
        <ele>110.05</ele>
        <time>2026-05-02T07:48:52.783Z</time>
      </trkpt>
      <trkpt lat="43.79458" lon="4.23126">
        <ele>100.28</ele>
        <time>2026-05-02T07:48:57.986Z</time>
      </trkpt>
      <trkpt lat="43.7946" lon="4.23123">
        <ele>96.3</ele>
        <time>2026-05-02T07:49:03.248Z</time>
      </trkpt>
      <trkpt lat="43.79465" lon="4.23123">
        <ele>95.84</ele>
        <time>2026-05-02T07:49:08.863Z</time>
      </trkpt>
      <trkpt lat="43.79468" lon="4.23125">
        <ele>103.3</ele>
        <time>2026-05-02T07:49:14.346Z</time>
      </trkpt>
      <trkpt lat="43.79473" lon="4.23125">
        <ele>105.2</ele>
        <time>2026-05-02T07:49:20.121Z</time>
      </trkpt>
      <trkpt lat="43.79478" lon="4.23127">
        <ele>93.67</ele>
        <time>2026-05-02T07:49:25.902Z</time>
      </trkpt>
      <trkpt lat="43.79482" lon="4.2313">
        <ele>93.46</ele>
        <time>2026-05-02T07:49:31.314Z</time>
      </trkpt>
      <trkpt lat="43.79484" lon="4.23133">
        <ele>93.58</ele>
        <time>2026-05-02T07:49:36.329Z</time>
      </trkpt>
      <trkpt lat="43.79489" lon="4.2313">
        <ele>94.46</ele>
        <time>2026-05-02T07:49:41.345Z</time>
      </trkpt>
      <trkpt lat="43.79494" lon="4.23128">
        <ele>93.94</ele>
        <time>2026-05-02T07:49:46.959Z</time>
      </trkpt>
      <trkpt lat="43.79499" lon="4.23125">
        <ele>94.11</ele>
        <time>2026-05-02T07:49:51.966Z</time>
      </trkpt>
      <trkpt lat="43.79504" lon="4.2312">
        <ele>94.75</ele>
        <time>2026-05-02T07:49:57.350Z</time>
      </trkpt>
      <trkpt lat="43.79508" lon="4.23119">
        <ele>94.14</ele>
        <time>2026-05-02T07:50:02.538Z</time>
      </trkpt>
      <trkpt lat="43.79512" lon="4.23117">
        <ele>95.36</ele>
        <time>2026-05-02T07:50:08.158Z</time>
      </trkpt>
      <trkpt lat="43.79514" lon="4.23113">
        <ele>95.23</ele>
        <time>2026-05-02T07:50:13.357Z</time>
      </trkpt>
      <trkpt lat="43.79516" lon="4.23109">
        <ele>94.58</ele>
        <time>2026-05-02T07:50:18.705Z</time>
      </trkpt>
      <trkpt lat="43.79522" lon="4.2311">
        <ele>94.21</ele>
        <time>2026-05-02T07:50:24.006Z</time>
      </trkpt>
      <trkpt lat="43.79526" lon="4.23108">
        <ele>95.98</ele>
        <time>2026-05-02T07:50:29.866Z</time>
      </trkpt>
      <trkpt lat="43.79532" lon="4.23104">
        <ele>96.08</ele>
        <time>2026-05-02T07:50:35.341Z</time>
      </trkpt>
      <trkpt lat="43.79534" lon="4.231">
        <ele>96.24</ele>
        <time>2026-05-02T07:50:40.355Z</time>
      </trkpt>
      <trkpt lat="43.79539" lon="4.23096">
        <ele>96.26</ele>
        <time>2026-05-02T07:50:45.694Z</time>
      </trkpt>
      <trkpt lat="43.79542" lon="4.2309">
        <ele>95.02</ele>
        <time>2026-05-02T07:50:50.970Z</time>
      </trkpt>
      <trkpt lat="43.79545" lon="4.23088">
        <ele>96.78</ele>
        <time>2026-05-02T07:50:56.362Z</time>
      </trkpt>
      <trkpt lat="43.79547" lon="4.23082">
        <ele>97.02</ele>
        <time>2026-05-02T07:51:01.931Z</time>
      </trkpt>
      <trkpt lat="43.79551" lon="4.23079">
        <ele>95.35</ele>
        <time>2026-05-02T07:51:08.319Z</time>
      </trkpt>
      <trkpt lat="43.79553" lon="4.23077">
        <ele>95.01</ele>
        <time>2026-05-02T07:51:13.334Z</time>
      </trkpt>
      <trkpt lat="43.79557" lon="4.23073">
        <ele>96.95</ele>
        <time>2026-05-02T07:51:19.310Z</time>
      </trkpt>
      <trkpt lat="43.7956" lon="4.23068">
        <ele>97.8</ele>
        <time>2026-05-02T07:51:25.044Z</time>
      </trkpt>
      <trkpt lat="43.79566" lon="4.23064">
        <ele>96.01</ele>
        <time>2026-05-02T07:51:30.052Z</time>
      </trkpt>
      <trkpt lat="43.7957" lon="4.2306">
        <ele>95.36</ele>
        <time>2026-05-02T07:51:35.321Z</time>
      </trkpt>
      <trkpt lat="43.79573" lon="4.23055">
        <ele>96.07</ele>
        <time>2026-05-02T07:51:40.335Z</time>
      </trkpt>
      <trkpt lat="43.79577" lon="4.23049">
        <ele>97.61</ele>
        <time>2026-05-02T07:51:46.337Z</time>
      </trkpt>
      <trkpt lat="43.79581" lon="4.23047">
        <ele>99.24</ele>
        <time>2026-05-02T07:51:51.357Z</time>
      </trkpt>
      <trkpt lat="43.79583" lon="4.23047">
        <ele>97.43</ele>
        <time>2026-05-02T07:51:57.298Z</time>
      </trkpt>
      <trkpt lat="43.79588" lon="4.23044">
        <ele>96.87</ele>
        <time>2026-05-02T07:52:03.278Z</time>
      </trkpt>
      <trkpt lat="43.79594" lon="4.23042">
        <ele>98.02</ele>
        <time>2026-05-02T07:52:08.295Z</time>
      </trkpt>
      <trkpt lat="43.79597" lon="4.23042">
        <ele>98.23</ele>
        <time>2026-05-02T07:52:13.775Z</time>
      </trkpt>
      <trkpt lat="43.79602" lon="4.23045">
        <ele>97.58</ele>
        <time>2026-05-02T07:52:19.348Z</time>
      </trkpt>
      <trkpt lat="43.79607" lon="4.23045">
        <ele>98.02</ele>
        <time>2026-05-02T07:52:24.358Z</time>
      </trkpt>
      <trkpt lat="43.79611" lon="4.23043">
        <ele>97.6</ele>
        <time>2026-05-02T07:52:30.014Z</time>
      </trkpt>
      <trkpt lat="43.79615" lon="4.23042">
        <ele>99.91</ele>
        <time>2026-05-02T07:52:35.292Z</time>
      </trkpt>
      <trkpt lat="43.79619" lon="4.23043">
        <ele>99.89</ele>
        <time>2026-05-02T07:52:40.863Z</time>
      </trkpt>
      <trkpt lat="43.79626" lon="4.23042">
        <ele>98.74</ele>
        <time>2026-05-02T07:52:46.146Z</time>
      </trkpt>
      <trkpt lat="43.79631" lon="4.2304">
        <ele>98.06</ele>
        <time>2026-05-02T07:52:51.204Z</time>
      </trkpt>
      <trkpt lat="43.79634" lon="4.23041">
        <ele>99.22</ele>
        <time>2026-05-02T07:52:56.212Z</time>
      </trkpt>
      <trkpt lat="43.79637" lon="4.23041">
        <ele>100.24</ele>
        <time>2026-05-02T07:53:01.334Z</time>
      </trkpt>
      <trkpt lat="43.79642" lon="4.23039">
        <ele>100.19</ele>
        <time>2026-05-02T07:53:06.978Z</time>
      </trkpt>
      <trkpt lat="43.79644" lon="4.2304">
        <ele>99</ele>
        <time>2026-05-02T07:53:12.119Z</time>
      </trkpt>
      <trkpt lat="43.79645" lon="4.2304">
        <ele>100.18</ele>
        <time>2026-05-02T07:53:17.340Z</time>
      </trkpt>
      <trkpt lat="43.79647" lon="4.23041">
        <ele>102.48</ele>
        <time>2026-05-02T07:53:23.316Z</time>
      </trkpt>
      <trkpt lat="43.79652" lon="4.23045">
        <ele>101.52</ele>
        <time>2026-05-02T07:53:28.783Z</time>
      </trkpt>
      <trkpt lat="43.79658" lon="4.23049">
        <ele>99.76</ele>
        <time>2026-05-02T07:53:34.307Z</time>
      </trkpt>
      <trkpt lat="43.79662" lon="4.23054">
        <ele>100.4</ele>
        <time>2026-05-02T07:53:39.719Z</time>
      </trkpt>
      <trkpt lat="43.79665" lon="4.2306">
        <ele>100.97</ele>
        <time>2026-05-02T07:53:44.729Z</time>
      </trkpt>
      <trkpt lat="43.79667" lon="4.23067">
        <ele>102.21</ele>
        <time>2026-05-02T07:53:49.964Z</time>
      </trkpt>
      <trkpt lat="43.79669" lon="4.23071">
        <ele>102.73</ele>
        <time>2026-05-02T07:53:55.103Z</time>
      </trkpt>
      <trkpt lat="43.79672" lon="4.23074">
        <ele>101.69</ele>
        <time>2026-05-02T07:54:00.147Z</time>
      </trkpt>
      <trkpt lat="43.79674" lon="4.23078">
        <ele>101.42</ele>
        <time>2026-05-02T07:54:05.164Z</time>
      </trkpt>
      <trkpt lat="43.79678" lon="4.23083">
        <ele>102.22</ele>
        <time>2026-05-02T07:54:10.268Z</time>
      </trkpt>
      <trkpt lat="43.79682" lon="4.23085">
        <ele>100.28</ele>
        <time>2026-05-02T07:54:15.283Z</time>
      </trkpt>
      <trkpt lat="43.79684" lon="4.23086">
        <ele>103.29</ele>
        <time>2026-05-02T07:54:20.299Z</time>
      </trkpt>
      <trkpt lat="43.79686" lon="4.23088">
        <ele>101.78</ele>
        <time>2026-05-02T07:54:25.314Z</time>
      </trkpt>
      <trkpt lat="43.7969" lon="4.23091">
        <ele>102.43</ele>
        <time>2026-05-02T07:54:30.636Z</time>
      </trkpt>
      <trkpt lat="43.79694" lon="4.23095">
        <ele>104.47</ele>
        <time>2026-05-02T07:54:36.304Z</time>
      </trkpt>
      <trkpt lat="43.79696" lon="4.23096">
        <ele>103.22</ele>
        <time>2026-05-02T07:54:42.198Z</time>
      </trkpt>
      <trkpt lat="43.79699" lon="4.23097">
        <ele>103.71</ele>
        <time>2026-05-02T07:54:47.295Z</time>
      </trkpt>
      <trkpt lat="43.79705" lon="4.23098">
        <ele>103.96</ele>
        <time>2026-05-02T07:54:52.683Z</time>
      </trkpt>
      <trkpt lat="43.7971" lon="4.231">
        <ele>104.62</ele>
        <time>2026-05-02T07:54:58.161Z</time>
      </trkpt>
      <trkpt lat="43.79714" lon="4.23103">
        <ele>105.6</ele>
        <time>2026-05-02T07:55:03.302Z</time>
      </trkpt>
      <trkpt lat="43.79718" lon="4.23104">
        <ele>105.36</ele>
        <time>2026-05-02T07:55:08.317Z</time>
      </trkpt>
      <trkpt lat="43.79722" lon="4.23104">
        <ele>104.94</ele>
        <time>2026-05-02T07:55:13.739Z</time>
      </trkpt>
      <trkpt lat="43.79725" lon="4.23106">
        <ele>105.82</ele>
        <time>2026-05-02T07:55:19.308Z</time>
      </trkpt>
      <trkpt lat="43.79728" lon="4.23108">
        <ele>106.91</ele>
        <time>2026-05-02T07:55:24.945Z</time>
      </trkpt>
      <trkpt lat="43.79732" lon="4.23109">
        <ele>107.04</ele>
        <time>2026-05-02T07:55:30.325Z</time>
      </trkpt>
      <trkpt lat="43.79735" lon="4.23112">
        <ele>107.29</ele>
        <time>2026-05-02T07:55:35.984Z</time>
      </trkpt>
      <trkpt lat="43.79738" lon="4.23114">
        <ele>107.47</ele>
        <time>2026-05-02T07:55:41.547Z</time>
      </trkpt>
      <trkpt lat="43.79741" lon="4.23117">
        <ele>109.17</ele>
        <time>2026-05-02T07:55:46.925Z</time>
      </trkpt>
      <trkpt lat="43.79741" lon="4.23118">
        <ele>111.29</ele>
        <time>2026-05-02T07:55:52.281Z</time>
      </trkpt>
      <trkpt lat="43.79743" lon="4.23119">
        <ele>111.46</ele>
        <time>2026-05-02T07:55:58.219Z</time>
      </trkpt>
      <trkpt lat="43.79745" lon="4.23121">
        <ele>112.76</ele>
        <time>2026-05-02T07:56:04.339Z</time>
      </trkpt>
      <trkpt lat="43.79747" lon="4.23125">
        <ele>113.85</ele>
        <time>2026-05-02T07:56:09.355Z</time>
      </trkpt>
      <trkpt lat="43.79749" lon="4.23126">
        <ele>114.83</ele>
        <time>2026-05-02T07:56:14.370Z</time>
      </trkpt>
      <trkpt lat="43.79753" lon="4.23128">
        <ele>115.17</ele>
        <time>2026-05-02T07:56:19.881Z</time>
      </trkpt>
      <trkpt lat="43.79754" lon="4.23132">
        <ele>115.71</ele>
        <time>2026-05-02T07:56:25.282Z</time>
      </trkpt>
      <trkpt lat="43.79755" lon="4.23138">
        <ele>116.72</ele>
        <time>2026-05-02T07:56:31.299Z</time>
      </trkpt>
      <trkpt lat="43.79757" lon="4.23142">
        <ele>117.19</ele>
        <time>2026-05-02T07:56:36.365Z</time>
      </trkpt>
      <trkpt lat="43.79758" lon="4.23144">
        <ele>118.86</ele>
        <time>2026-05-02T07:56:41.942Z</time>
      </trkpt>
      <trkpt lat="43.79759" lon="4.23147">
        <ele>119.15</ele>
        <time>2026-05-02T07:56:47.236Z</time>
      </trkpt>
      <trkpt lat="43.7976" lon="4.23153">
        <ele>119.96</ele>
        <time>2026-05-02T07:56:52.944Z</time>
      </trkpt>
      <trkpt lat="43.7976" lon="4.23155">
        <ele>120.75</ele>
        <time>2026-05-02T07:56:58.120Z</time>
      </trkpt>
      <trkpt lat="43.79761" lon="4.23161">
        <ele>121.25</ele>
        <time>2026-05-02T07:57:03.301Z</time>
      </trkpt>
      <trkpt lat="43.7976" lon="4.23166">
        <ele>121.61</ele>
        <time>2026-05-02T07:57:09.020Z</time>
      </trkpt>
      <trkpt lat="43.79761" lon="4.23169">
        <ele>123.58</ele>
        <time>2026-05-02T07:57:14.340Z</time>
      </trkpt>
      <trkpt lat="43.79762" lon="4.23169">
        <ele>123.13</ele>
        <time>2026-05-02T07:57:20.144Z</time>
      </trkpt>
      <trkpt lat="43.79764" lon="4.23172">
        <ele>124.28</ele>
        <time>2026-05-02T07:57:25.906Z</time>
      </trkpt>
      <trkpt lat="43.79765" lon="4.23178">
        <ele>124.7</ele>
        <time>2026-05-02T07:57:31.240Z</time>
      </trkpt>
      <trkpt lat="43.79767" lon="4.23181">
        <ele>125.7</ele>
        <time>2026-05-02T07:57:36.321Z</time>
      </trkpt>
      <trkpt lat="43.79773" lon="4.23184">
        <ele>126.09</ele>
        <time>2026-05-02T07:57:41.780Z</time>
      </trkpt>
      <trkpt lat="43.79776" lon="4.23187">
        <ele>127.35</ele>
        <time>2026-05-02T07:57:47.312Z</time>
      </trkpt>
      <trkpt lat="43.79778" lon="4.23191">
        <ele>127.69</ele>
        <time>2026-05-02T07:57:52.328Z</time>
      </trkpt>
      <trkpt lat="43.79779" lon="4.23196">
        <ele>128.09</ele>
        <time>2026-05-02T07:57:57.883Z</time>
      </trkpt>
      <trkpt lat="43.79781" lon="4.232">
        <ele>128.89</ele>
        <time>2026-05-02T07:58:03.318Z</time>
      </trkpt>
      <trkpt lat="43.79784" lon="4.23203">
        <ele>129.37</ele>
        <time>2026-05-02T07:58:08.333Z</time>
      </trkpt>
      <trkpt lat="43.79785" lon="4.23207">
        <ele>129.33</ele>
        <time>2026-05-02T07:58:13.349Z</time>
      </trkpt>
      <trkpt lat="43.79786" lon="4.23209">
        <ele>129.31</ele>
        <time>2026-05-02T07:58:18.364Z</time>
      </trkpt>
      <trkpt lat="43.79786" lon="4.23208">
        <ele>128.95</ele>
        <time>2026-05-02T07:58:41.107Z</time>
      </trkpt>
      <trkpt lat="43.79786" lon="4.23207">
        <ele>128.48</ele>
        <time>2026-05-02T07:58:52.297Z</time>
      </trkpt>
      <trkpt lat="43.79787" lon="4.23207">
        <ele>128.33</ele>
        <time>2026-05-02T07:59:19.133Z</time>
      </trkpt>
      <trkpt lat="43.79786" lon="4.23206">
        <ele>128.89</ele>
        <time>2026-05-02T07:59:27.297Z</time>
      </trkpt>
      <trkpt lat="43.79785" lon="4.23207">
        <ele>129.47</ele>
        <time>2026-05-02T08:00:11.334Z</time>
      </trkpt>
      <trkpt lat="43.79783" lon="4.23213">
        <ele>132.83</ele>
        <time>2026-05-02T08:00:17.349Z</time>
      </trkpt>
      <trkpt lat="43.79781" lon="4.23216">
        <ele>134.13</ele>
        <time>2026-05-02T08:00:22.933Z</time>
      </trkpt>
      <trkpt lat="43.7978" lon="4.23222">
        <ele>134.95</ele>
        <time>2026-05-02T08:00:28.333Z</time>
      </trkpt>
      <trkpt lat="43.79778" lon="4.23225">
        <ele>135.48</ele>
        <time>2026-05-02T08:00:33.349Z</time>
      </trkpt>
      <trkpt lat="43.79777" lon="4.2323">
        <ele>136.02</ele>
        <time>2026-05-02T08:00:39.074Z</time>
      </trkpt>
      <trkpt lat="43.79777" lon="4.23233">
        <ele>137.45</ele>
        <time>2026-05-02T08:00:44.339Z</time>
      </trkpt>
      <trkpt lat="43.79777" lon="4.23239">
        <ele>138.43</ele>
        <time>2026-05-02T08:00:50.109Z</time>
      </trkpt>
      <trkpt lat="43.79774" lon="4.23247">
        <ele>139.56</ele>
        <time>2026-05-02T08:00:55.854Z</time>
      </trkpt>
      <trkpt lat="43.79771" lon="4.23253">
        <ele>139.61</ele>
        <time>2026-05-02T08:01:01.188Z</time>
      </trkpt>
      <trkpt lat="43.7977" lon="4.23251">
        <ele>140.38</ele>
        <time>2026-05-02T08:01:06.215Z</time>
      </trkpt>
      <trkpt lat="43.79769" lon="4.23252">
        <ele>140.37</ele>
        <time>2026-05-02T08:01:20.732Z</time>
      </trkpt>
      <trkpt lat="43.79765" lon="4.23251">
        <ele>139.77</ele>
        <time>2026-05-02T08:01:25.814Z</time>
      </trkpt>
      <trkpt lat="43.7976" lon="4.23246">
        <ele>140.36</ele>
        <time>2026-05-02T08:01:31.313Z</time>
      </trkpt>
      <trkpt lat="43.79756" lon="4.23245">
        <ele>140.1</ele>
        <time>2026-05-02T08:01:36.890Z</time>
      </trkpt>
      <trkpt lat="43.79752" lon="4.23241">
        <ele>140.47</ele>
        <time>2026-05-02T08:01:42.305Z</time>
      </trkpt>
      <trkpt lat="43.79747" lon="4.23237">
        <ele>141.9</ele>
        <time>2026-05-02T08:01:47.320Z</time>
      </trkpt>
      <trkpt lat="43.79742" lon="4.23235">
        <ele>142.58</ele>
        <time>2026-05-02T08:01:52.855Z</time>
      </trkpt>
      <trkpt lat="43.79737" lon="4.23234">
        <ele>142.03</ele>
        <time>2026-05-02T08:01:58.313Z</time>
      </trkpt>
      <trkpt lat="43.79733" lon="4.23234">
        <ele>141.65</ele>
        <time>2026-05-02T08:02:03.794Z</time>
      </trkpt>
      <trkpt lat="43.79728" lon="4.23233">
        <ele>140.72</ele>
        <time>2026-05-02T08:02:09.304Z</time>
      </trkpt>
      <trkpt lat="43.79723" lon="4.23233">
        <ele>139.68</ele>
        <time>2026-05-02T08:02:14.686Z</time>
      </trkpt>
      <trkpt lat="43.79718" lon="4.23231">
        <ele>140.45</ele>
        <time>2026-05-02T08:02:19.808Z</time>
      </trkpt>
      <trkpt lat="43.79713" lon="4.23229">
        <ele>141.91</ele>
        <time>2026-05-02T08:02:25.074Z</time>
      </trkpt>
      <trkpt lat="43.79707" lon="4.23226">
        <ele>141.1</ele>
        <time>2026-05-02T08:02:31.145Z</time>
      </trkpt>
      <trkpt lat="43.797" lon="4.23224">
        <ele>140.08</ele>
        <time>2026-05-02T08:02:36.302Z</time>
      </trkpt>
      <trkpt lat="43.79693" lon="4.2322">
        <ele>138.96</ele>
        <time>2026-05-02T08:02:41.389Z</time>
      </trkpt>
      <trkpt lat="43.79687" lon="4.23217">
        <ele>139.43</ele>
        <time>2026-05-02T08:02:46.546Z</time>
      </trkpt>
      <trkpt lat="43.79681" lon="4.23216">
        <ele>139.71</ele>
        <time>2026-05-02T08:02:52.036Z</time>
      </trkpt>
      <trkpt lat="43.79675" lon="4.23214">
        <ele>139.23</ele>
        <time>2026-05-02T08:02:57.175Z</time>
      </trkpt>
      <trkpt lat="43.79668" lon="4.23215">
        <ele>137.96</ele>
        <time>2026-05-02T08:03:02.339Z</time>
      </trkpt>
      <trkpt lat="43.79661" lon="4.23216">
        <ele>138.53</ele>
        <time>2026-05-02T08:03:08.175Z</time>
      </trkpt>
      <trkpt lat="43.79654" lon="4.23217">
        <ele>140.23</ele>
        <time>2026-05-02T08:03:14.008Z</time>
      </trkpt>
      <trkpt lat="43.79646" lon="4.2322">
        <ele>139.77</ele>
        <time>2026-05-02T08:03:19.674Z</time>
      </trkpt>
      <trkpt lat="43.79639" lon="4.23224">
        <ele>139.2</ele>
        <time>2026-05-02T08:03:25.355Z</time>
      </trkpt>
      <trkpt lat="43.79633" lon="4.23228">
        <ele>138.82</ele>
        <time>2026-05-02T08:03:30.993Z</time>
      </trkpt>
      <trkpt lat="43.79628" lon="4.23232">
        <ele>138.57</ele>
        <time>2026-05-02T08:03:36.272Z</time>
      </trkpt>
      <trkpt lat="43.79621" lon="4.23231">
        <ele>138.53</ele>
        <time>2026-05-02T08:03:42.330Z</time>
      </trkpt>
      <trkpt lat="43.79612" lon="4.2323">
        <ele>137.62</ele>
        <time>2026-05-02T08:03:47.968Z</time>
      </trkpt>
      <trkpt lat="43.79605" lon="4.2323">
        <ele>136.53</ele>
        <time>2026-05-02T08:03:53.344Z</time>
      </trkpt>
      <trkpt lat="43.79599" lon="4.23229">
        <ele>136.59</ele>
        <time>2026-05-02T08:03:58.361Z</time>
      </trkpt>
      <trkpt lat="43.79593" lon="4.2323">
        <ele>136.28</ele>
        <time>2026-05-02T08:04:03.628Z</time>
      </trkpt>
      <trkpt lat="43.79585" lon="4.23233">
        <ele>135.68</ele>
        <time>2026-05-02T08:04:09.168Z</time>
      </trkpt>
      <trkpt lat="43.79577" lon="4.23235">
        <ele>134.79</ele>
        <time>2026-05-02T08:04:14.689Z</time>
      </trkpt>
      <trkpt lat="43.7957" lon="4.23236">
        <ele>134.09</ele>
        <time>2026-05-02T08:04:20.229Z</time>
      </trkpt>
      <trkpt lat="43.79564" lon="4.23234">
        <ele>134.32</ele>
        <time>2026-05-02T08:04:25.358Z</time>
      </trkpt>
      <trkpt lat="43.79558" lon="4.23236">
        <ele>133.42</ele>
        <time>2026-05-02T08:04:30.367Z</time>
      </trkpt>
      <trkpt lat="43.7955" lon="4.2324">
        <ele>132.95</ele>
        <time>2026-05-02T08:04:35.933Z</time>
      </trkpt>
      <trkpt lat="43.79543" lon="4.2324">
        <ele>131.8</ele>
        <time>2026-05-02T08:04:41.363Z</time>
      </trkpt>
      <trkpt lat="43.79536" lon="4.23242">
        <ele>131.05</ele>
        <time>2026-05-02T08:04:46.934Z</time>
      </trkpt>
      <trkpt lat="43.7953" lon="4.23243">
        <ele>131.96</ele>
        <time>2026-05-02T08:04:52.374Z</time>
      </trkpt>
      <trkpt lat="43.79522" lon="4.23245">
        <ele>130.63</ele>
        <time>2026-05-02T08:04:58.330Z</time>
      </trkpt>
      <trkpt lat="43.79514" lon="4.23242">
        <ele>130.77</ele>
        <time>2026-05-02T08:05:04.306Z</time>
      </trkpt>
      <trkpt lat="43.79506" lon="4.23241">
        <ele>129.48</ele>
        <time>2026-05-02T08:05:09.831Z</time>
      </trkpt>
      <trkpt lat="43.79499" lon="4.23241">
        <ele>128.79</ele>
        <time>2026-05-02T08:05:15.254Z</time>
      </trkpt>
      <trkpt lat="43.79491" lon="4.23241">
        <ele>128</ele>
        <time>2026-05-02T08:05:20.312Z</time>
      </trkpt>
      <trkpt lat="43.79484" lon="4.23239">
        <ele>128.34</ele>
        <time>2026-05-02T08:05:26.290Z</time>
      </trkpt>
      <trkpt lat="43.79478" lon="4.23238">
        <ele>127.22</ele>
        <time>2026-05-02T08:05:31.302Z</time>
      </trkpt>
      <trkpt lat="43.7947" lon="4.23239">
        <ele>127.15</ele>
        <time>2026-05-02T08:05:37.386Z</time>
      </trkpt>
      <trkpt lat="43.79466" lon="4.23244">
        <ele>127.25</ele>
        <time>2026-05-02T08:05:43.006Z</time>
      </trkpt>
      <trkpt lat="43.7947" lon="4.2325">
        <ele>126.79</ele>
        <time>2026-05-02T08:05:48.211Z</time>
      </trkpt>
      <trkpt lat="43.79474" lon="4.23255">
        <ele>126.88</ele>
        <time>2026-05-02T08:05:53.814Z</time>
      </trkpt>
      <trkpt lat="43.79478" lon="4.23256">
        <ele>128.94</ele>
        <time>2026-05-02T08:05:59.332Z</time>
      </trkpt>
      <trkpt lat="43.79482" lon="4.23257">
        <ele>129.78</ele>
        <time>2026-05-02T08:06:04.729Z</time>
      </trkpt>
      <trkpt lat="43.79484" lon="4.23265">
        <ele>130.48</ele>
        <time>2026-05-02T08:06:10.130Z</time>
      </trkpt>
      <trkpt lat="43.79488" lon="4.23268">
        <ele>133.99</ele>
        <time>2026-05-02T08:06:15.373Z</time>
      </trkpt>
      <trkpt lat="43.79492" lon="4.23274">
        <ele>133.58</ele>
        <time>2026-05-02T08:06:21.032Z</time>
      </trkpt>
      <trkpt lat="43.79495" lon="4.23278">
        <ele>134.8</ele>
        <time>2026-05-02T08:06:26.794Z</time>
      </trkpt>
      <trkpt lat="43.795" lon="4.23281">
        <ele>135.52</ele>
        <time>2026-05-02T08:06:31.870Z</time>
      </trkpt>
      <trkpt lat="43.79502" lon="4.23285">
        <ele>134.73</ele>
        <time>2026-05-02T08:06:37.334Z</time>
      </trkpt>
      <trkpt lat="43.79503" lon="4.2329">
        <ele>135.45</ele>
        <time>2026-05-02T08:06:42.731Z</time>
      </trkpt>
      <trkpt lat="43.79505" lon="4.23294">
        <ele>137.65</ele>
        <time>2026-05-02T08:06:48.250Z</time>
      </trkpt>
      <trkpt lat="43.79508" lon="4.23292">
        <ele>137.89</ele>
        <time>2026-05-02T08:06:53.968Z</time>
      </trkpt>
      <trkpt lat="43.79508" lon="4.23293">
        <ele>138.38</ele>
        <time>2026-05-02T08:06:59.171Z</time>
      </trkpt>
      <trkpt lat="43.79509" lon="4.23293">
        <ele>138.47</ele>
        <time>2026-05-02T08:07:04.758Z</time>
      </trkpt>
      <trkpt lat="43.79509" lon="4.23297">
        <ele>139.18</ele>
        <time>2026-05-02T08:07:10.073Z</time>
      </trkpt>
      <trkpt lat="43.79509" lon="4.23301">
        <ele>140.13</ele>
        <time>2026-05-02T08:07:15.343Z</time>
      </trkpt>
      <trkpt lat="43.79511" lon="4.23305">
        <ele>139.13</ele>
        <time>2026-05-02T08:07:20.548Z</time>
      </trkpt>
      <trkpt lat="43.79512" lon="4.23311">
        <ele>139.87</ele>
        <time>2026-05-02T08:07:26.008Z</time>
      </trkpt>
      <trkpt lat="43.79508" lon="4.23319">
        <ele>139.89</ele>
        <time>2026-05-02T08:07:31.031Z</time>
      </trkpt>
      <trkpt lat="43.79504" lon="4.23325">
        <ele>139.61</ele>
        <time>2026-05-02T08:07:36.349Z</time>
      </trkpt>
      <trkpt lat="43.795" lon="4.23328">
        <ele>139.34</ele>
        <time>2026-05-02T08:07:41.640Z</time>
      </trkpt>
      <trkpt lat="43.79496" lon="4.23329">
        <ele>139.38</ele>
        <time>2026-05-02T08:07:47.092Z</time>
      </trkpt>
      <trkpt lat="43.79489" lon="4.23332">
        <ele>139.41</ele>
        <time>2026-05-02T08:07:53.191Z</time>
      </trkpt>
      <trkpt lat="43.79488" lon="4.23335">
        <ele>138.06</ele>
        <time>2026-05-02T08:07:58.269Z</time>
      </trkpt>
      <trkpt lat="43.79483" lon="4.23341">
        <ele>137.28</ele>
        <time>2026-05-02T08:08:04.350Z</time>
      </trkpt>
      <trkpt lat="43.79478" lon="4.23345">
        <ele>136.75</ele>
        <time>2026-05-02T08:08:09.777Z</time>
      </trkpt>
      <trkpt lat="43.79475" lon="4.2335">
        <ele>136.9</ele>
        <time>2026-05-02T08:08:15.313Z</time>
      </trkpt>
      <trkpt lat="43.79471" lon="4.23353">
        <ele>136.18</ele>
        <time>2026-05-02T08:08:20.509Z</time>
      </trkpt>
      <trkpt lat="43.79464" lon="4.23353">
        <ele>135.82</ele>
        <time>2026-05-02T08:08:26.076Z</time>
      </trkpt>
      <trkpt lat="43.79458" lon="4.23357">
        <ele>136.26</ele>
        <time>2026-05-02T08:08:31.318Z</time>
      </trkpt>
      <trkpt lat="43.79453" lon="4.2336">
        <ele>136.1</ele>
        <time>2026-05-02T08:08:36.333Z</time>
      </trkpt>
      <trkpt lat="43.79449" lon="4.23365">
        <ele>135.67</ele>
        <time>2026-05-02T08:08:41.910Z</time>
      </trkpt>
      <trkpt lat="43.7945" lon="4.2337">
        <ele>136.18</ele>
        <time>2026-05-02T08:08:46.972Z</time>
      </trkpt>
      <trkpt lat="43.79443" lon="4.23374">
        <ele>137.72</ele>
        <time>2026-05-02T08:08:53.299Z</time>
      </trkpt>
      <trkpt lat="43.79445" lon="4.23373">
        <ele>136.47</ele>
        <time>2026-05-02T08:08:58.315Z</time>
      </trkpt>
      <trkpt lat="43.79446" lon="4.23369">
        <ele>135.93</ele>
        <time>2026-05-02T08:09:03.331Z</time>
      </trkpt>
      <trkpt lat="43.79445" lon="4.23369">
        <ele>134.65</ele>
        <time>2026-05-02T08:09:27.340Z</time>
      </trkpt>
      <trkpt lat="43.79444" lon="4.23369">
        <ele>134.8</ele>
        <time>2026-05-02T08:09:52.309Z</time>
      </trkpt>
      <trkpt lat="43.79444" lon="4.23371">
        <ele>134.85</ele>
        <time>2026-05-02T08:10:05.373Z</time>
      </trkpt>
      <trkpt lat="43.79444" lon="4.2338">
        <ele>135.78</ele>
        <time>2026-05-02T08:10:10.886Z</time>
      </trkpt>
      <trkpt lat="43.79448" lon="4.23385">
        <ele>137.68</ele>
        <time>2026-05-02T08:10:16.087Z</time>
      </trkpt>
      <trkpt lat="43.7945" lon="4.23391">
        <ele>136.81</ele>
        <time>2026-05-02T08:10:21.309Z</time>
      </trkpt>
      <trkpt lat="43.7945" lon="4.23395">
        <ele>136.48</ele>
        <time>2026-05-02T08:10:26.778Z</time>
      </trkpt>
      <trkpt lat="43.79454" lon="4.23398">
        <ele>136.35</ele>
        <time>2026-05-02T08:10:31.826Z</time>
      </trkpt>
      <trkpt lat="43.79457" lon="4.23407">
        <ele>135.97</ele>
        <time>2026-05-02T08:10:36.995Z</time>
      </trkpt>
      <trkpt lat="43.79455" lon="4.2341">
        <ele>134.25</ele>
        <time>2026-05-02T08:10:42.153Z</time>
      </trkpt>
      <trkpt lat="43.79449" lon="4.23415">
        <ele>133.42</ele>
        <time>2026-05-02T08:10:47.368Z</time>
      </trkpt>
      <trkpt lat="43.79442" lon="4.23417">
        <ele>133.3</ele>
        <time>2026-05-02T08:10:52.868Z</time>
      </trkpt>
      <trkpt lat="43.79437" lon="4.2342">
        <ele>133.47</ele>
        <time>2026-05-02T08:10:58.177Z</time>
      </trkpt>
      <trkpt lat="43.79434" lon="4.23424">
        <ele>133.53</ele>
        <time>2026-05-02T08:11:03.350Z</time>
      </trkpt>
      <trkpt lat="43.79431" lon="4.23431">
        <ele>133.16</ele>
        <time>2026-05-02T08:11:08.454Z</time>
      </trkpt>
      <trkpt lat="43.79428" lon="4.2344">
        <ele>132.44</ele>
        <time>2026-05-02T08:11:14.288Z</time>
      </trkpt>
      <trkpt lat="43.79423" lon="4.2345">
        <ele>133.82</ele>
        <time>2026-05-02T08:11:19.536Z</time>
      </trkpt>
      <trkpt lat="43.79421" lon="4.23458">
        <ele>133.54</ele>
        <time>2026-05-02T08:11:24.715Z</time>
      </trkpt>
      <trkpt lat="43.79419" lon="4.23466">
        <ele>133.22</ele>
        <time>2026-05-02T08:11:29.993Z</time>
      </trkpt>
      <trkpt lat="43.79415" lon="4.23473">
        <ele>131.94</ele>
        <time>2026-05-02T08:11:35.035Z</time>
      </trkpt>
      <trkpt lat="43.79412" lon="4.2348">
        <ele>132.4</ele>
        <time>2026-05-02T08:11:40.315Z</time>
      </trkpt>
      <trkpt lat="43.79411" lon="4.2349">
        <ele>132.89</ele>
        <time>2026-05-02T08:11:46.068Z</time>
      </trkpt>
      <trkpt lat="43.79407" lon="4.23498">
        <ele>132.81</ele>
        <time>2026-05-02T08:11:51.392Z</time>
      </trkpt>
      <trkpt lat="43.79405" lon="4.23504">
        <ele>132.72</ele>
        <time>2026-05-02T08:11:56.952Z</time>
      </trkpt>
      <trkpt lat="43.79401" lon="4.2351">
        <ele>133.18</ele>
        <time>2026-05-02T08:12:02.313Z</time>
      </trkpt>
      <trkpt lat="43.79396" lon="4.23515">
        <ele>132.53</ele>
        <time>2026-05-02T08:12:08.050Z</time>
      </trkpt>
      <trkpt lat="43.7939" lon="4.2352">
        <ele>133.33</ele>
        <time>2026-05-02T08:12:14.195Z</time>
      </trkpt>
      <trkpt lat="43.79385" lon="4.23526">
        <ele>133.32</ele>
        <time>2026-05-02T08:12:20.188Z</time>
      </trkpt>
      <trkpt lat="43.79386" lon="4.23537">
        <ele>132.91</ele>
        <time>2026-05-02T08:12:26.190Z</time>
      </trkpt>
      <trkpt lat="43.79386" lon="4.23545">
        <ele>132.47</ele>
        <time>2026-05-02T08:12:32.271Z</time>
      </trkpt>
      <trkpt lat="43.79383" lon="4.23552">
        <ele>133.12</ele>
        <time>2026-05-02T08:12:38.341Z</time>
      </trkpt>
      <trkpt lat="43.79378" lon="4.23558">
        <ele>133.59</ele>
        <time>2026-05-02T08:12:44.010Z</time>
      </trkpt>
      <trkpt lat="43.79374" lon="4.23562">
        <ele>133.31</ele>
        <time>2026-05-02T08:12:49.012Z</time>
      </trkpt>
      <trkpt lat="43.79368" lon="4.23566">
        <ele>132.94</ele>
        <time>2026-05-02T08:12:55.196Z</time>
      </trkpt>
      <trkpt lat="43.79366" lon="4.23571">
        <ele>132.93</ele>
        <time>2026-05-02T08:13:00.227Z</time>
      </trkpt>
      <trkpt lat="43.79361" lon="4.23576">
        <ele>132.79</ele>
        <time>2026-05-02T08:13:06.390Z</time>
      </trkpt>
      <trkpt lat="43.79355" lon="4.2358">
        <ele>132.67</ele>
        <time>2026-05-02T08:13:12.292Z</time>
      </trkpt>
      <trkpt lat="43.7935" lon="4.23583">
        <ele>132.85</ele>
        <time>2026-05-02T08:13:17.353Z</time>
      </trkpt>
      <trkpt lat="43.79344" lon="4.23587">
        <ele>132.33</ele>
        <time>2026-05-02T08:13:22.530Z</time>
      </trkpt>
      <trkpt lat="43.7934" lon="4.2359">
        <ele>132.76</ele>
        <time>2026-05-02T08:13:27.871Z</time>
      </trkpt>
      <trkpt lat="43.79336" lon="4.23595">
        <ele>132.66</ele>
        <time>2026-05-02T08:13:33.236Z</time>
      </trkpt>
      <trkpt lat="43.79334" lon="4.23602">
        <ele>131.61</ele>
        <time>2026-05-02T08:13:38.250Z</time>
      </trkpt>
      <trkpt lat="43.79337" lon="4.23603">
        <ele>130.98</ele>
        <time>2026-05-02T08:13:43.433Z</time>
      </trkpt>
      <trkpt lat="43.7934" lon="4.236">
        <ele>130.73</ele>
        <time>2026-05-02T08:13:49.188Z</time>
      </trkpt>
      <trkpt lat="43.79345" lon="4.236">
        <ele>131.4</ele>
        <time>2026-05-02T08:13:54.211Z</time>
      </trkpt>
      <trkpt lat="43.79348" lon="4.23606">
        <ele>131.98</ele>
        <time>2026-05-02T08:13:59.988Z</time>
      </trkpt>
      <trkpt lat="43.79352" lon="4.23611">
        <ele>131.61</ele>
        <time>2026-05-02T08:14:05.030Z</time>
      </trkpt>
      <trkpt lat="43.79357" lon="4.23618">
        <ele>131.72</ele>
        <time>2026-05-02T08:14:11.070Z</time>
      </trkpt>
      <trkpt lat="43.79362" lon="4.23628">
        <ele>130.53</ele>
        <time>2026-05-02T08:14:17.073Z</time>
      </trkpt>
      <trkpt lat="43.79364" lon="4.23636">
        <ele>132.73</ele>
        <time>2026-05-02T08:14:22.289Z</time>
      </trkpt>
      <trkpt lat="43.79367" lon="4.23642">
        <ele>132.07</ele>
        <time>2026-05-02T08:14:27.771Z</time>
      </trkpt>
      <trkpt lat="43.79369" lon="4.23649">
        <ele>131.03</ele>
        <time>2026-05-02T08:14:33.387Z</time>
      </trkpt>
      <trkpt lat="43.79372" lon="4.23655">
        <ele>129.92</ele>
        <time>2026-05-02T08:14:38.844Z</time>
      </trkpt>
      <trkpt lat="43.79376" lon="4.23658">
        <ele>128.5</ele>
        <time>2026-05-02T08:14:44.292Z</time>
      </trkpt>
      <trkpt lat="43.79381" lon="4.23664">
        <ele>126.83</ele>
        <time>2026-05-02T08:14:50.133Z</time>
      </trkpt>
      <trkpt lat="43.79381" lon="4.23674">
        <ele>127.24</ele>
        <time>2026-05-02T08:14:55.424Z</time>
      </trkpt>
      <trkpt lat="43.79378" lon="4.23681">
        <ele>126.49</ele>
        <time>2026-05-02T08:15:00.991Z</time>
      </trkpt>
      <trkpt lat="43.79376" lon="4.23683">
        <ele>125.16</ele>
        <time>2026-05-02T08:15:06.260Z</time>
      </trkpt>
      <trkpt lat="43.79381" lon="4.23686">
        <ele>123.23</ele>
        <time>2026-05-02T08:15:11.793Z</time>
      </trkpt>
      <trkpt lat="43.79382" lon="4.23693">
        <ele>121.76</ele>
        <time>2026-05-02T08:15:17.228Z</time>
      </trkpt>
      <trkpt lat="43.79388" lon="4.23691">
        <ele>122.73</ele>
        <time>2026-05-02T08:15:22.889Z</time>
      </trkpt>
      <trkpt lat="43.79393" lon="4.23689">
        <ele>123.41</ele>
        <time>2026-05-02T08:15:29.036Z</time>
      </trkpt>
      <trkpt lat="43.79397" lon="4.23682">
        <ele>122.63</ele>
        <time>2026-05-02T08:15:34.358Z</time>
      </trkpt>
      <trkpt lat="43.79401" lon="4.23679">
        <ele>123.08</ele>
        <time>2026-05-02T08:15:40.089Z</time>
      </trkpt>
      <trkpt lat="43.79403" lon="4.23675">
        <ele>123.21</ele>
        <time>2026-05-02T08:15:45.334Z</time>
      </trkpt>
      <trkpt lat="43.79407" lon="4.2367">
        <ele>123.02</ele>
        <time>2026-05-02T08:15:51.051Z</time>
      </trkpt>
      <trkpt lat="43.7941" lon="4.23666">
        <ele>123.66</ele>
        <time>2026-05-02T08:15:56.352Z</time>
      </trkpt>
      <trkpt lat="43.79412" lon="4.2366">
        <ele>124.67</ele>
        <time>2026-05-02T08:16:02.280Z</time>
      </trkpt>
      <trkpt lat="43.79419" lon="4.23652">
        <ele>125.61</ele>
        <time>2026-05-02T08:16:07.294Z</time>
      </trkpt>
      <trkpt lat="43.79424" lon="4.23646">
        <ele>125.03</ele>
        <time>2026-05-02T08:16:12.312Z</time>
      </trkpt>
      <trkpt lat="43.79428" lon="4.2364">
        <ele>125.09</ele>
        <time>2026-05-02T08:16:17.854Z</time>
      </trkpt>
      <trkpt lat="43.79431" lon="4.23635">
        <ele>125.93</ele>
        <time>2026-05-02T08:16:23.300Z</time>
      </trkpt>
      <trkpt lat="43.79431" lon="4.23637">
        <ele>125.29</ele>
        <time>2026-05-02T08:16:28.848Z</time>
      </trkpt>
      <trkpt lat="43.79431" lon="4.23635">
        <ele>124.57</ele>
        <time>2026-05-02T08:16:49.335Z</time>
      </trkpt>
      <trkpt lat="43.79431" lon="4.23634">
        <ele>124.82</ele>
        <time>2026-05-02T08:17:17.397Z</time>
      </trkpt>
      <trkpt lat="43.79431" lon="4.23636">
        <ele>125.14</ele>
        <time>2026-05-02T08:17:32.730Z</time>
      </trkpt>
      <trkpt lat="43.79432" lon="4.23637">
        <ele>124.49</ele>
        <time>2026-05-02T08:17:37.754Z</time>
      </trkpt>
      <trkpt lat="43.79434" lon="4.23645">
        <ele>123.91</ele>
        <time>2026-05-02T08:17:43.116Z</time>
      </trkpt>
      <trkpt lat="43.79434" lon="4.2365">
        <ele>123.63</ele>
        <time>2026-05-02T08:17:48.754Z</time>
      </trkpt>
      <trkpt lat="43.79433" lon="4.23657">
        <ele>122.95</ele>
        <time>2026-05-02T08:17:54.316Z</time>
      </trkpt>
      <trkpt lat="43.79431" lon="4.23663">
        <ele>122.98</ele>
        <time>2026-05-02T08:17:59.332Z</time>
      </trkpt>
      <trkpt lat="43.79429" lon="4.23669">
        <ele>122.84</ele>
        <time>2026-05-02T08:18:04.446Z</time>
      </trkpt>
      <trkpt lat="43.79425" lon="4.23673">
        <ele>121.94</ele>
        <time>2026-05-02T08:18:09.647Z</time>
      </trkpt>
      <trkpt lat="43.79422" lon="4.23676">
        <ele>123.44</ele>
        <time>2026-05-02T08:18:15.374Z</time>
      </trkpt>
      <trkpt lat="43.79417" lon="4.23681">
        <ele>122.19</ele>
        <time>2026-05-02T08:18:20.727Z</time>
      </trkpt>
      <trkpt lat="43.79413" lon="4.23689">
        <ele>121.73</ele>
        <time>2026-05-02T08:18:26.089Z</time>
      </trkpt>
      <trkpt lat="43.79407" lon="4.23694">
        <ele>121.15</ele>
        <time>2026-05-02T08:18:31.292Z</time>
      </trkpt>
      <trkpt lat="43.79401" lon="4.23698">
        <ele>121.07</ele>
        <time>2026-05-02T08:18:36.867Z</time>
      </trkpt>
      <trkpt lat="43.79398" lon="4.23705">
        <ele>120.33</ele>
        <time>2026-05-02T08:18:42.114Z</time>
      </trkpt>
      <trkpt lat="43.79395" lon="4.23708">
        <ele>120.76</ele>
        <time>2026-05-02T08:18:47.348Z</time>
      </trkpt>
      <trkpt lat="43.79393" lon="4.23711">
        <ele>119.74</ele>
        <time>2026-05-02T08:18:53.228Z</time>
      </trkpt>
      <trkpt lat="43.79389" lon="4.23713">
        <ele>118.24</ele>
        <time>2026-05-02T08:18:58.830Z</time>
      </trkpt>
      <trkpt lat="43.79391" lon="4.23711">
        <ele>117.86</ele>
        <time>2026-05-02T08:19:03.988Z</time>
      </trkpt>
      <trkpt lat="43.7939" lon="4.23712">
        <ele>119.73</ele>
        <time>2026-05-02T08:19:11.955Z</time>
      </trkpt>
      <trkpt lat="43.79387" lon="4.23714">
        <ele>119.99</ele>
        <time>2026-05-02T08:19:17.233Z</time>
      </trkpt>
      <trkpt lat="43.79386" lon="4.23714">
        <ele>119.58</ele>
        <time>2026-05-02T08:19:22.356Z</time>
      </trkpt>
      <trkpt lat="43.79385" lon="4.23715">
        <ele>119</ele>
        <time>2026-05-02T08:19:27.370Z</time>
      </trkpt>
      <trkpt lat="43.79382" lon="4.23713">
        <ele>118.61</ele>
        <time>2026-05-02T08:19:32.386Z</time>
      </trkpt>
      <trkpt lat="43.79378" lon="4.23711">
        <ele>119.5</ele>
        <time>2026-05-02T08:19:37.412Z</time>
      </trkpt>
      <trkpt lat="43.79376" lon="4.23711">
        <ele>122.21</ele>
        <time>2026-05-02T08:19:42.954Z</time>
      </trkpt>
      <trkpt lat="43.79376" lon="4.23713">
        <ele>123.1</ele>
        <time>2026-05-02T08:19:48.074Z</time>
      </trkpt>
      <trkpt lat="43.79374" lon="4.23713">
        <ele>123.01</ele>
        <time>2026-05-02T08:19:53.871Z</time>
      </trkpt>
      <trkpt lat="43.79369" lon="4.23715">
        <ele>123.22</ele>
        <time>2026-05-02T08:19:59.251Z</time>
      </trkpt>
      <trkpt lat="43.79365" lon="4.23713">
        <ele>122.53</ele>
        <time>2026-05-02T08:20:04.396Z</time>
      </trkpt>
      <trkpt lat="43.79364" lon="4.23712">
        <ele>120.85</ele>
        <time>2026-05-02T08:20:10.351Z</time>
      </trkpt>
      <trkpt lat="43.79363" lon="4.23713">
        <ele>123.22</ele>
        <time>2026-05-02T08:20:20.401Z</time>
      </trkpt>
      <trkpt lat="43.79362" lon="4.23713">
        <ele>121.85</ele>
        <time>2026-05-02T08:20:29.364Z</time>
      </trkpt>
      <trkpt lat="43.79363" lon="4.23709">
        <ele>122.15</ele>
        <time>2026-05-02T08:20:34.437Z</time>
      </trkpt>
      <trkpt lat="43.79362" lon="4.23709">
        <ele>123.73</ele>
        <time>2026-05-02T08:20:45.114Z</time>
      </trkpt>
      <trkpt lat="43.79362" lon="4.23712">
        <ele>123.62</ele>
        <time>2026-05-02T08:20:50.752Z</time>
      </trkpt>
      <trkpt lat="43.79362" lon="4.23711">
        <ele>122.71</ele>
        <time>2026-05-02T08:20:57.954Z</time>
      </trkpt>
      <trkpt lat="43.79363" lon="4.23708">
        <ele>122.65</ele>
        <time>2026-05-02T08:21:03.228Z</time>
      </trkpt>
      <trkpt lat="43.79364" lon="4.23705">
        <ele>122.76</ele>
        <time>2026-05-02T08:21:08.418Z</time>
      </trkpt>
      <trkpt lat="43.79365" lon="4.23705">
        <ele>122.71</ele>
        <time>2026-05-02T08:21:21.435Z</time>
      </trkpt>
      <trkpt lat="43.79366" lon="4.23704">
        <ele>122.5</ele>
        <time>2026-05-02T08:21:30.151Z</time>
      </trkpt>
      <trkpt lat="43.7937" lon="4.23712">
        <ele>122.37</ele>
        <time>2026-05-02T08:21:35.931Z</time>
      </trkpt>
      <trkpt lat="43.79373" lon="4.23718">
        <ele>122.21</ele>
        <time>2026-05-02T08:21:41.389Z</time>
      </trkpt>
      <trkpt lat="43.79375" lon="4.23726">
        <ele>120.95</ele>
        <time>2026-05-02T08:21:47.030Z</time>
      </trkpt>
      <trkpt lat="43.79374" lon="4.2373">
        <ele>119.86</ele>
        <time>2026-05-02T08:21:52.805Z</time>
      </trkpt>
      <trkpt lat="43.79373" lon="4.23734">
        <ele>119.07</ele>
        <time>2026-05-02T08:21:58.170Z</time>
      </trkpt>
      <trkpt lat="43.79371" lon="4.23739">
        <ele>117.56</ele>
        <time>2026-05-02T08:22:03.368Z</time>
      </trkpt>
      <trkpt lat="43.79369" lon="4.23745">
        <ele>117.19</ele>
        <time>2026-05-02T08:22:08.384Z</time>
      </trkpt>
      <trkpt lat="43.79365" lon="4.23753">
        <ele>117.17</ele>
        <time>2026-05-02T08:22:14.290Z</time>
      </trkpt>
      <trkpt lat="43.79361" lon="4.23757">
        <ele>115.18</ele>
        <time>2026-05-02T08:22:19.374Z</time>
      </trkpt>
      <trkpt lat="43.79354" lon="4.2376">
        <ele>115.08</ele>
        <time>2026-05-02T08:22:25.131Z</time>
      </trkpt>
      <trkpt lat="43.79349" lon="4.23764">
        <ele>115.1</ele>
        <time>2026-05-02T08:22:30.257Z</time>
      </trkpt>
      <trkpt lat="43.79344" lon="4.23768">
        <ele>114.82</ele>
        <time>2026-05-02T08:22:35.390Z</time>
      </trkpt>
      <trkpt lat="43.7934" lon="4.23769">
        <ele>114.37</ele>
        <time>2026-05-02T08:22:40.690Z</time>
      </trkpt>
      <trkpt lat="43.79339" lon="4.23774">
        <ele>115.39</ele>
        <time>2026-05-02T08:22:46.036Z</time>
      </trkpt>
      <trkpt lat="43.79332" lon="4.2378">
        <ele>115.36</ele>
        <time>2026-05-02T08:22:51.307Z</time>
      </trkpt>
      <trkpt lat="43.79325" lon="4.23779">
        <ele>114.94</ele>
        <time>2026-05-02T08:22:56.831Z</time>
      </trkpt>
      <trkpt lat="43.79321" lon="4.2378">
        <ele>113.48</ele>
        <time>2026-05-02T08:23:01.933Z</time>
      </trkpt>
      <trkpt lat="43.79316" lon="4.23783">
        <ele>114.59</ele>
        <time>2026-05-02T08:23:07.271Z</time>
      </trkpt>
      <trkpt lat="43.79311" lon="4.23787">
        <ele>115.08</ele>
        <time>2026-05-02T08:23:12.408Z</time>
      </trkpt>
      <trkpt lat="43.79305" lon="4.2379">
        <ele>112.71</ele>
        <time>2026-05-02T08:23:17.852Z</time>
      </trkpt>
      <trkpt lat="43.79299" lon="4.23793">
        <ele>113.05</ele>
        <time>2026-05-02T08:23:23.290Z</time>
      </trkpt>
      <trkpt lat="43.79294" lon="4.23795">
        <ele>113.35</ele>
        <time>2026-05-02T08:23:28.305Z</time>
      </trkpt>
      <trkpt lat="43.79289" lon="4.23796">
        <ele>114.65</ele>
        <time>2026-05-02T08:23:34.035Z</time>
      </trkpt>
      <trkpt lat="43.79287" lon="4.23796">
        <ele>114.1</ele>
        <time>2026-05-02T08:23:39.295Z</time>
      </trkpt>
      <trkpt lat="43.79286" lon="4.23796">
        <ele>113.79</ele>
        <time>2026-05-02T08:23:44.566Z</time>
      </trkpt>
      <trkpt lat="43.79284" lon="4.23797">
        <ele>113.89</ele>
        <time>2026-05-02T08:23:49.647Z</time>
      </trkpt>
      <trkpt lat="43.79279" lon="4.23798">
        <ele>113.78</ele>
        <time>2026-05-02T08:23:55.328Z</time>
      </trkpt>
      <trkpt lat="43.79277" lon="4.23797">
        <ele>113.9</ele>
        <time>2026-05-02T08:24:01.383Z</time>
      </trkpt>
      <trkpt lat="43.79277" lon="4.23798">
        <ele>112.18</ele>
        <time>2026-05-02T08:24:12.373Z</time>
      </trkpt>
      <trkpt lat="43.79277" lon="4.238">
        <ele>111.74</ele>
        <time>2026-05-02T08:24:19.309Z</time>
      </trkpt>
      <trkpt lat="43.79278" lon="4.238">
        <ele>112.04</ele>
        <time>2026-05-02T08:24:36.380Z</time>
      </trkpt>
      <trkpt lat="43.79277" lon="4.23801">
        <ele>111.8</ele>
        <time>2026-05-02T08:24:49.251Z</time>
      </trkpt>
      <trkpt lat="43.7927" lon="4.23802">
        <ele>113.43</ele>
        <time>2026-05-02T08:24:54.414Z</time>
      </trkpt>
      <trkpt lat="43.79263" lon="4.23804">
        <ele>112.57</ele>
        <time>2026-05-02T08:24:59.709Z</time>
      </trkpt>
      <trkpt lat="43.79256" lon="4.23807">
        <ele>112.16</ele>
        <time>2026-05-02T08:25:04.829Z</time>
      </trkpt>
      <trkpt lat="43.79249" lon="4.23808">
        <ele>112.94</ele>
        <time>2026-05-02T08:25:10.209Z</time>
      </trkpt>
      <trkpt lat="43.79243" lon="4.23811">
        <ele>111.14</ele>
        <time>2026-05-02T08:25:16.151Z</time>
      </trkpt>
      <trkpt lat="43.7924" lon="4.23813">
        <ele>110.92</ele>
        <time>2026-05-02T08:25:21.394Z</time>
      </trkpt>
      <trkpt lat="43.79237" lon="4.23815">
        <ele>109.59</ele>
        <time>2026-05-02T08:25:26.970Z</time>
      </trkpt>
      <trkpt lat="43.7923" lon="4.23818">
        <ele>108.79</ele>
        <time>2026-05-02T08:25:32.012Z</time>
      </trkpt>
      <trkpt lat="43.79223" lon="4.23821">
        <ele>108.79</ele>
        <time>2026-05-02T08:25:37.311Z</time>
      </trkpt>
      <trkpt lat="43.79217" lon="4.23827">
        <ele>108.13</ele>
        <time>2026-05-02T08:25:43.136Z</time>
      </trkpt>
      <trkpt lat="43.79214" lon="4.2383">
        <ele>107.65</ele>
        <time>2026-05-02T08:25:48.599Z</time>
      </trkpt>
      <trkpt lat="43.79215" lon="4.2383">
        <ele>108.5</ele>
        <time>2026-05-02T08:25:55.866Z</time>
      </trkpt>
      <trkpt lat="43.79214" lon="4.2383">
        <ele>107</ele>
        <time>2026-05-02T08:26:01.423Z</time>
      </trkpt>
      <trkpt lat="43.79205" lon="4.23825">
        <ele>109.16</ele>
        <time>2026-05-02T08:26:06.946Z</time>
      </trkpt>
      <trkpt lat="43.79202" lon="4.23816">
        <ele>111.6</ele>
        <time>2026-05-02T08:26:12.413Z</time>
      </trkpt>
      <trkpt lat="43.792" lon="4.23812">
        <ele>111.83</ele>
        <time>2026-05-02T08:26:17.963Z</time>
      </trkpt>
      <trkpt lat="43.79197" lon="4.2381">
        <ele>112.74</ele>
        <time>2026-05-02T08:26:23.298Z</time>
      </trkpt>
      <trkpt lat="43.79194" lon="4.23814">
        <ele>113.1</ele>
        <time>2026-05-02T08:26:28.312Z</time>
      </trkpt>
      <trkpt lat="43.79192" lon="4.23814">
        <ele>113.62</ele>
        <time>2026-05-02T08:26:33.329Z</time>
      </trkpt>
      <trkpt lat="43.7919" lon="4.23815">
        <ele>113.08</ele>
        <time>2026-05-02T08:26:38.936Z</time>
      </trkpt>
      <trkpt lat="43.79189" lon="4.23815">
        <ele>115.57</ele>
        <time>2026-05-02T08:26:49.214Z</time>
      </trkpt>
      <trkpt lat="43.79187" lon="4.23813">
        <ele>117.86</ele>
        <time>2026-05-02T08:26:54.373Z</time>
      </trkpt>
      <trkpt lat="43.79182" lon="4.23812">
        <ele>118.14</ele>
        <time>2026-05-02T08:27:00.292Z</time>
      </trkpt>
      <trkpt lat="43.79178" lon="4.23811">
        <ele>120.37</ele>
        <time>2026-05-02T08:27:05.369Z</time>
      </trkpt>
      <trkpt lat="43.7917" lon="4.2381">
        <ele>119.98</ele>
        <time>2026-05-02T08:27:10.972Z</time>
      </trkpt>
      <trkpt lat="43.79166" lon="4.23809">
        <ele>120.71</ele>
        <time>2026-05-02T08:27:16.116Z</time>
      </trkpt>
      <trkpt lat="43.79165" lon="4.2381">
        <ele>119.97</ele>
        <time>2026-05-02T08:27:21.346Z</time>
      </trkpt>
      <trkpt lat="43.79164" lon="4.23811">
        <ele>120.88</ele>
        <time>2026-05-02T08:27:26.792Z</time>
      </trkpt>
      <trkpt lat="43.79162" lon="4.23811">
        <ele>122.15</ele>
        <time>2026-05-02T08:27:32.336Z</time>
      </trkpt>
      <trkpt lat="43.79161" lon="4.23812">
        <ele>122.01</ele>
        <time>2026-05-02T08:27:37.754Z</time>
      </trkpt>
      <trkpt lat="43.79161" lon="4.23814">
        <ele>121.51</ele>
        <time>2026-05-02T08:27:43.137Z</time>
      </trkpt>
      <trkpt lat="43.79159" lon="4.23813">
        <ele>120.99</ele>
        <time>2026-05-02T08:27:48.212Z</time>
      </trkpt>
      <trkpt lat="43.79157" lon="4.23812">
        <ele>121.22</ele>
        <time>2026-05-02T08:27:53.368Z</time>
      </trkpt>
      <trkpt lat="43.79156" lon="4.23815">
        <ele>120.68</ele>
        <time>2026-05-02T08:27:58.371Z</time>
      </trkpt>
      <trkpt lat="43.79154" lon="4.23815">
        <ele>119.59</ele>
        <time>2026-05-02T08:28:03.387Z</time>
      </trkpt>
      <trkpt lat="43.79152" lon="4.23816">
        <ele>119.21</ele>
        <time>2026-05-02T08:28:08.894Z</time>
      </trkpt>
      <trkpt lat="43.79148" lon="4.23814">
        <ele>119.85</ele>
        <time>2026-05-02T08:28:14.405Z</time>
      </trkpt>
      <trkpt lat="43.79141" lon="4.23812">
        <ele>121.06</ele>
        <time>2026-05-02T08:28:20.187Z</time>
      </trkpt>
      <trkpt lat="43.79137" lon="4.23813">
        <ele>121.23</ele>
        <time>2026-05-02T08:28:25.368Z</time>
      </trkpt>
      <trkpt lat="43.79132" lon="4.23813">
        <ele>121.48</ele>
        <time>2026-05-02T08:28:31.344Z</time>
      </trkpt>
      <trkpt lat="43.79125" lon="4.23805">
        <ele>122.13</ele>
        <time>2026-05-02T08:28:36.359Z</time>
      </trkpt>
      <trkpt lat="43.79119" lon="4.23799">
        <ele>122.15</ele>
        <time>2026-05-02T08:28:41.758Z</time>
      </trkpt>
      <trkpt lat="43.79114" lon="4.238">
        <ele>121.65</ele>
        <time>2026-05-02T08:28:47.348Z</time>
      </trkpt>
      <trkpt lat="43.79112" lon="4.23797">
        <ele>121.41</ele>
        <time>2026-05-02T08:28:52.364Z</time>
      </trkpt>
      <trkpt lat="43.79109" lon="4.2379">
        <ele>122.36</ele>
        <time>2026-05-02T08:28:57.365Z</time>
      </trkpt>
      <trkpt lat="43.79103" lon="4.23783">
        <ele>121.82</ele>
        <time>2026-05-02T08:29:02.423Z</time>
      </trkpt>
      <trkpt lat="43.79099" lon="4.23784">
        <ele>121.86</ele>
        <time>2026-05-02T08:29:08.369Z</time>
      </trkpt>
      <trkpt lat="43.79097" lon="4.23783">
        <ele>121.9</ele>
        <time>2026-05-02T08:29:13.984Z</time>
      </trkpt>
      <trkpt lat="43.79096" lon="4.23785">
        <ele>121.65</ele>
        <time>2026-05-02T08:29:19.221Z</time>
      </trkpt>
      <trkpt lat="43.79098" lon="4.2379">
        <ele>120.67</ele>
        <time>2026-05-02T08:29:24.619Z</time>
      </trkpt>
      <trkpt lat="43.791" lon="4.23797">
        <ele>119.18</ele>
        <time>2026-05-02T08:29:30.359Z</time>
      </trkpt>
      <trkpt lat="43.79103" lon="4.23801">
        <ele>120.93</ele>
        <time>2026-05-02T08:29:35.867Z</time>
      </trkpt>
      <trkpt lat="43.79104" lon="4.2381">
        <ele>120.14</ele>
        <time>2026-05-02T08:29:41.350Z</time>
      </trkpt>
      <trkpt lat="43.79106" lon="4.23819">
        <ele>119.73</ele>
        <time>2026-05-02T08:29:46.840Z</time>
      </trkpt>
      <trkpt lat="43.79108" lon="4.23829">
        <ele>119.91</ele>
        <time>2026-05-02T08:29:52.086Z</time>
      </trkpt>
      <trkpt lat="43.79111" lon="4.23837">
        <ele>119.19</ele>
        <time>2026-05-02T08:29:57.356Z</time>
      </trkpt>
      <trkpt lat="43.79115" lon="4.23842">
        <ele>118.14</ele>
        <time>2026-05-02T08:30:02.371Z</time>
      </trkpt>
      <trkpt lat="43.79117" lon="4.23846">
        <ele>118.96</ele>
        <time>2026-05-02T08:30:07.807Z</time>
      </trkpt>
      <trkpt lat="43.7912" lon="4.23849">
        <ele>118.74</ele>
        <time>2026-05-02T08:30:13.141Z</time>
      </trkpt>
      <trkpt lat="43.79125" lon="4.23851">
        <ele>118.81</ele>
        <time>2026-05-02T08:30:18.375Z</time>
      </trkpt>
      <trkpt lat="43.79131" lon="4.23855">
        <ele>118.69</ele>
        <time>2026-05-02T08:30:24.031Z</time>
      </trkpt>
      <trkpt lat="43.79136" lon="4.23857">
        <ele>118.11</ele>
        <time>2026-05-02T08:30:29.387Z</time>
      </trkpt>
      <trkpt lat="43.7914" lon="4.23859">
        <ele>118.91</ele>
        <time>2026-05-02T08:30:35.342Z</time>
      </trkpt>
      <trkpt lat="43.79142" lon="4.23862">
        <ele>118.71</ele>
        <time>2026-05-02T08:30:40.356Z</time>
      </trkpt>
      <trkpt lat="43.79143" lon="4.23863">
        <ele>117.66</ele>
        <time>2026-05-02T08:30:45.372Z</time>
      </trkpt>
      <trkpt lat="43.79142" lon="4.23863">
        <ele>117.05</ele>
        <time>2026-05-02T08:30:51.347Z</time>
      </trkpt>
      <trkpt lat="43.79143" lon="4.23864">
        <ele>116.92</ele>
        <time>2026-05-02T08:30:59.616Z</time>
      </trkpt>
      <trkpt lat="43.79143" lon="4.23864">
        <ele>117.54</ele>
        <time>2026-05-02T08:31:08.825Z</time>
      </trkpt>
      <trkpt lat="43.79147" lon="4.23861">
        <ele>116.66</ele>
        <time>2026-05-02T08:31:14.289Z</time>
      </trkpt>
      <trkpt lat="43.79153" lon="4.23857">
        <ele>118.26</ele>
        <time>2026-05-02T08:31:19.410Z</time>
      </trkpt>
      <trkpt lat="43.79162" lon="4.23862">
        <ele>118.34</ele>
        <time>2026-05-02T08:31:25.362Z</time>
      </trkpt>
      <trkpt lat="43.79168" lon="4.23868">
        <ele>117.01</ele>
        <time>2026-05-02T08:31:30.934Z</time>
      </trkpt>
      <trkpt lat="43.79174" lon="4.2387">
        <ele>116.88</ele>
        <time>2026-05-02T08:31:36.085Z</time>
      </trkpt>
      <trkpt lat="43.79179" lon="4.23875">
        <ele>115.62</ele>
        <time>2026-05-02T08:31:41.146Z</time>
      </trkpt>
      <trkpt lat="43.79181" lon="4.23879">
        <ele>114.83</ele>
        <time>2026-05-02T08:31:46.301Z</time>
      </trkpt>
      <trkpt lat="43.79185" lon="4.2388">
        <ele>115.05</ele>
        <time>2026-05-02T08:31:51.408Z</time>
      </trkpt>
      <trkpt lat="43.7919" lon="4.23884">
        <ele>111.35</ele>
        <time>2026-05-02T08:31:56.868Z</time>
      </trkpt>
      <trkpt lat="43.79196" lon="4.23884">
        <ele>110.3</ele>
        <time>2026-05-02T08:32:02.305Z</time>
      </trkpt>
      <trkpt lat="43.79199" lon="4.23887">
        <ele>110.53</ele>
        <time>2026-05-02T08:32:07.883Z</time>
      </trkpt>
      <trkpt lat="43.79203" lon="4.2389">
        <ele>108.5</ele>
        <time>2026-05-02T08:32:13.184Z</time>
      </trkpt>
      <trkpt lat="43.79209" lon="4.23892">
        <ele>106.16</ele>
        <time>2026-05-02T08:32:19.378Z</time>
      </trkpt>
      <trkpt lat="43.79211" lon="4.23888">
        <ele>105.68</ele>
        <time>2026-05-02T08:32:24.392Z</time>
      </trkpt>
      <trkpt lat="43.79218" lon="4.23885">
        <ele>105.68</ele>
        <time>2026-05-02T08:32:29.964Z</time>
      </trkpt>
      <trkpt lat="43.79223" lon="4.23885">
        <ele>104.06</ele>
        <time>2026-05-02T08:32:35.704Z</time>
      </trkpt>
      <trkpt lat="43.79223" lon="4.23881">
        <ele>103.75</ele>
        <time>2026-05-02T08:32:41.362Z</time>
      </trkpt>
      <trkpt lat="43.7922" lon="4.23874">
        <ele>105.55</ele>
        <time>2026-05-02T08:32:46.373Z</time>
      </trkpt>
      <trkpt lat="43.79222" lon="4.23867">
        <ele>105.68</ele>
        <time>2026-05-02T08:32:52.041Z</time>
      </trkpt>
      <trkpt lat="43.79224" lon="4.23862">
        <ele>105.68</ele>
        <time>2026-05-02T08:32:57.278Z</time>
      </trkpt>
      <trkpt lat="43.79224" lon="4.23863">
        <ele>103.93</ele>
        <time>2026-05-02T08:33:02.379Z</time>
      </trkpt>
      <trkpt lat="43.79224" lon="4.23862">
        <ele>101.17</ele>
        <time>2026-05-02T08:33:22.106Z</time>
      </trkpt>
      <trkpt lat="43.79226" lon="4.23857">
        <ele>101.17</ele>
        <time>2026-05-02T08:33:27.326Z</time>
      </trkpt>
      <trkpt lat="43.7923" lon="4.2385">
        <ele>103.04</ele>
        <time>2026-05-02T08:33:33.017Z</time>
      </trkpt>
      <trkpt lat="43.79238" lon="4.23845">
        <ele>103.58</ele>
        <time>2026-05-02T08:33:38.375Z</time>
      </trkpt>
      <trkpt lat="43.79244" lon="4.23842">
        <ele>100.94</ele>
        <time>2026-05-02T08:33:44.414Z</time>
      </trkpt>
      <trkpt lat="43.79249" lon="4.23841">
        <ele>103.74</ele>
        <time>2026-05-02T08:33:49.955Z</time>
      </trkpt>
      <trkpt lat="43.79255" lon="4.23841">
        <ele>102.35</ele>
        <time>2026-05-02T08:33:55.130Z</time>
      </trkpt>
      <trkpt lat="43.79261" lon="4.23842">
        <ele>103.45</ele>
        <time>2026-05-02T08:34:00.750Z</time>
      </trkpt>
      <trkpt lat="43.79266" lon="4.23843">
        <ele>105.67</ele>
        <time>2026-05-02T08:34:06.271Z</time>
      </trkpt>
      <trkpt lat="43.79269" lon="4.23843">
        <ele>103.77</ele>
        <time>2026-05-02T08:34:11.346Z</time>
      </trkpt>
      <trkpt lat="43.7927" lon="4.23843">
        <ele>104.78</ele>
        <time>2026-05-02T08:34:16.837Z</time>
      </trkpt>
      <trkpt lat="43.79275" lon="4.23841">
        <ele>106.2</ele>
        <time>2026-05-02T08:34:22.336Z</time>
      </trkpt>
      <trkpt lat="43.79276" lon="4.23838">
        <ele>106.83</ele>
        <time>2026-05-02T08:34:27.352Z</time>
      </trkpt>
      <trkpt lat="43.79278" lon="4.23838">
        <ele>105.86</ele>
        <time>2026-05-02T08:34:34.078Z</time>
      </trkpt>
      <trkpt lat="43.79284" lon="4.2384">
        <ele>105.67</ele>
        <time>2026-05-02T08:34:39.321Z</time>
      </trkpt>
      <trkpt lat="43.7929" lon="4.2384">
        <ele>107.81</ele>
        <time>2026-05-02T08:34:44.748Z</time>
      </trkpt>
      <trkpt lat="43.79294" lon="4.23837">
        <ele>107.78</ele>
        <time>2026-05-02T08:34:50.235Z</time>
      </trkpt>
      <trkpt lat="43.79297" lon="4.23835">
        <ele>107.49</ele>
        <time>2026-05-02T08:34:55.667Z</time>
      </trkpt>
      <trkpt lat="43.79301" lon="4.23833">
        <ele>105.17</ele>
        <time>2026-05-02T08:35:00.807Z</time>
      </trkpt>
      <trkpt lat="43.79304" lon="4.2383">
        <ele>105.97</ele>
        <time>2026-05-02T08:35:06.309Z</time>
      </trkpt>
      <trkpt lat="43.7931" lon="4.23827">
        <ele>108.11</ele>
        <time>2026-05-02T08:35:11.673Z</time>
      </trkpt>
      <trkpt lat="43.79313" lon="4.23821">
        <ele>110.08</ele>
        <time>2026-05-02T08:35:17.071Z</time>
      </trkpt>
      <trkpt lat="43.79317" lon="4.23814">
        <ele>112.15</ele>
        <time>2026-05-02T08:35:22.325Z</time>
      </trkpt>
      <trkpt lat="43.79322" lon="4.23813">
        <ele>109.92</ele>
        <time>2026-05-02T08:35:27.339Z</time>
      </trkpt>
      <trkpt lat="43.79324" lon="4.23811">
        <ele>108.16</ele>
        <time>2026-05-02T08:35:32.354Z</time>
      </trkpt>
      <trkpt lat="43.79325" lon="4.2381">
        <ele>110.43</ele>
        <time>2026-05-02T08:35:39.214Z</time>
      </trkpt>
      <trkpt lat="43.7933" lon="4.23806">
        <ele>112.27</ele>
        <time>2026-05-02T08:35:44.411Z</time>
      </trkpt>
      <trkpt lat="43.79337" lon="4.23802">
        <ele>111.52</ele>
        <time>2026-05-02T08:35:50.016Z</time>
      </trkpt>
      <trkpt lat="43.7934" lon="4.23797">
        <ele>113.02</ele>
        <time>2026-05-02T08:35:55.032Z</time>
      </trkpt>
      <trkpt lat="43.79345" lon="4.23794">
        <ele>112.51</ele>
        <time>2026-05-02T08:36:00.891Z</time>
      </trkpt>
      <trkpt lat="43.79349" lon="4.23794">
        <ele>111.92</ele>
        <time>2026-05-02T08:36:06.623Z</time>
      </trkpt>
      <trkpt lat="43.79353" lon="4.23795">
        <ele>113.7</ele>
        <time>2026-05-02T08:36:12.239Z</time>
      </trkpt>
      <trkpt lat="43.79355" lon="4.23795">
        <ele>112.8</ele>
        <time>2026-05-02T08:36:17.735Z</time>
      </trkpt>
      <trkpt lat="43.79357" lon="4.23792">
        <ele>112.81</ele>
        <time>2026-05-02T08:36:23.354Z</time>
      </trkpt>
      <trkpt lat="43.79365" lon="4.23785">
        <ele>112.85</ele>
        <time>2026-05-02T08:36:28.373Z</time>
      </trkpt>
      <trkpt lat="43.79371" lon="4.23777">
        <ele>113.35</ele>
        <time>2026-05-02T08:36:34.078Z</time>
      </trkpt>
      <trkpt lat="43.79377" lon="4.23774">
        <ele>114.86</ele>
        <time>2026-05-02T08:36:39.442Z</time>
      </trkpt>
      <trkpt lat="43.79383" lon="4.23773">
        <ele>114.38</ele>
        <time>2026-05-02T08:36:45.076Z</time>
      </trkpt>
      <trkpt lat="43.79387" lon="4.23771">
        <ele>114.55</ele>
        <time>2026-05-02T08:36:50.731Z</time>
      </trkpt>
      <trkpt lat="43.79389" lon="4.23769">
        <ele>116.64</ele>
        <time>2026-05-02T08:36:56.331Z</time>
      </trkpt>
      <trkpt lat="43.79391" lon="4.23768">
        <ele>115.25</ele>
        <time>2026-05-02T08:37:01.345Z</time>
      </trkpt>
      <trkpt lat="43.79394" lon="4.23766">
        <ele>114.6</ele>
        <time>2026-05-02T08:37:07.156Z</time>
      </trkpt>
      <trkpt lat="43.79395" lon="4.23764">
        <ele>115.75</ele>
        <time>2026-05-02T08:37:12.443Z</time>
      </trkpt>
      <trkpt lat="43.79396" lon="4.23764">
        <ele>115.06</ele>
        <time>2026-05-02T08:37:21.405Z</time>
      </trkpt>
      <trkpt lat="43.79397" lon="4.23763">
        <ele>115.13</ele>
        <time>2026-05-02T08:37:53.098Z</time>
      </trkpt>
      <trkpt lat="43.79396" lon="4.23763">
        <ele>113.66</ele>
        <time>2026-05-02T08:38:01.313Z</time>
      </trkpt>
      <trkpt lat="43.79395" lon="4.23764">
        <ele>114.3</ele>
        <time>2026-05-02T08:38:07.396Z</time>
      </trkpt>
      <trkpt lat="43.79392" lon="4.23766">
        <ele>113.74</ele>
        <time>2026-05-02T08:38:12.522Z</time>
      </trkpt>
      <trkpt lat="43.79391" lon="4.23766">
        <ele>113.64</ele>
        <time>2026-05-02T08:38:18.386Z</time>
      </trkpt>
      <trkpt lat="43.79389" lon="4.23764">
        <ele>115.96</ele>
        <time>2026-05-02T08:38:24.232Z</time>
      </trkpt>
      <trkpt lat="43.79389" lon="4.23762">
        <ele>116.36</ele>
        <time>2026-05-02T08:38:29.377Z</time>
      </trkpt>
      <trkpt lat="43.79387" lon="4.23756">
        <ele>117.03</ele>
        <time>2026-05-02T08:38:35.353Z</time>
      </trkpt>
      <trkpt lat="43.79385" lon="4.23751">
        <ele>118</ele>
        <time>2026-05-02T08:38:40.368Z</time>
      </trkpt>
      <trkpt lat="43.79385" lon="4.23748">
        <ele>115.43</ele>
        <time>2026-05-02T08:38:45.383Z</time>
      </trkpt>
      <trkpt lat="43.79386" lon="4.23746">
        <ele>117.46</ele>
        <time>2026-05-02T08:38:51.337Z</time>
      </trkpt>
      <trkpt lat="43.79388" lon="4.23739">
        <ele>121.54</ele>
        <time>2026-05-02T08:38:56.373Z</time>
      </trkpt>
      <trkpt lat="43.7939" lon="4.2373">
        <ele>121.82</ele>
        <time>2026-05-02T08:39:01.507Z</time>
      </trkpt>
      <trkpt lat="43.79392" lon="4.23725">
        <ele>122.76</ele>
        <time>2026-05-02T08:39:07.322Z</time>
      </trkpt>
      <trkpt lat="43.79396" lon="4.23717">
        <ele>122.2</ele>
        <time>2026-05-02T08:39:12.379Z</time>
      </trkpt>
      <trkpt lat="43.79403" lon="4.23712">
        <ele>121.86</ele>
        <time>2026-05-02T08:39:17.730Z</time>
      </trkpt>
      <trkpt lat="43.79409" lon="4.23706">
        <ele>123.38</ele>
        <time>2026-05-02T08:39:23.369Z</time>
      </trkpt>
      <trkpt lat="43.79414" lon="4.23701">
        <ele>122.88</ele>
        <time>2026-05-02T08:39:29.222Z</time>
      </trkpt>
      <trkpt lat="43.79416" lon="4.23697">
        <ele>120.7</ele>
        <time>2026-05-02T08:39:34.255Z</time>
      </trkpt>
      <trkpt lat="43.79419" lon="4.23692">
        <ele>121.84</ele>
        <time>2026-05-02T08:39:39.375Z</time>
      </trkpt>
      <trkpt lat="43.79424" lon="4.23687">
        <ele>123.05</ele>
        <time>2026-05-02T08:39:44.705Z</time>
      </trkpt>
      <trkpt lat="43.79429" lon="4.23681">
        <ele>121.9</ele>
        <time>2026-05-02T08:39:50.366Z</time>
      </trkpt>
      <trkpt lat="43.79432" lon="4.23674">
        <ele>121.15</ele>
        <time>2026-05-02T08:39:56.148Z</time>
      </trkpt>
      <trkpt lat="43.79435" lon="4.23668">
        <ele>120.73</ele>
        <time>2026-05-02T08:40:01.388Z</time>
      </trkpt>
      <trkpt lat="43.7944" lon="4.23663">
        <ele>122.47</ele>
        <time>2026-05-02T08:40:06.731Z</time>
      </trkpt>
      <trkpt lat="43.79444" lon="4.23659">
        <ele>125.77</ele>
        <time>2026-05-02T08:40:12.315Z</time>
      </trkpt>
      <trkpt lat="43.79446" lon="4.23656">
        <ele>127.75</ele>
        <time>2026-05-02T08:40:17.713Z</time>
      </trkpt>
      <trkpt lat="43.79447" lon="4.23648">
        <ele>128.03</ele>
        <time>2026-05-02T08:40:23.110Z</time>
      </trkpt>
      <trkpt lat="43.79448" lon="4.23642">
        <ele>127.22</ele>
        <time>2026-05-02T08:40:28.774Z</time>
      </trkpt>
      <trkpt lat="43.79449" lon="4.23635">
        <ele>127.49</ele>
        <time>2026-05-02T08:40:34.328Z</time>
      </trkpt>
      <trkpt lat="43.7945" lon="4.23627">
        <ele>128.22</ele>
        <time>2026-05-02T08:40:40.410Z</time>
      </trkpt>
      <trkpt lat="43.79451" lon="4.23621">
        <ele>127.28</ele>
        <time>2026-05-02T08:40:46.097Z</time>
      </trkpt>
      <trkpt lat="43.79454" lon="4.23613">
        <ele>129.74</ele>
        <time>2026-05-02T08:40:51.369Z</time>
      </trkpt>
      <trkpt lat="43.79455" lon="4.23603">
        <ele>127.54</ele>
        <time>2026-05-02T08:40:56.876Z</time>
      </trkpt>
      <trkpt lat="43.79455" lon="4.23597">
        <ele>130.25</ele>
        <time>2026-05-02T08:41:02.252Z</time>
      </trkpt>
      <trkpt lat="43.79452" lon="4.2359">
        <ele>131.43</ele>
        <time>2026-05-02T08:41:07.731Z</time>
      </trkpt>
      <trkpt lat="43.7945" lon="4.23581">
        <ele>131.58</ele>
        <time>2026-05-02T08:41:13.030Z</time>
      </trkpt>
      <trkpt lat="43.79449" lon="4.23572">
        <ele>133.02</ele>
        <time>2026-05-02T08:41:18.756Z</time>
      </trkpt>
      <trkpt lat="43.79452" lon="4.23567">
        <ele>132.58</ele>
        <time>2026-05-02T08:41:24.252Z</time>
      </trkpt>
      <trkpt lat="43.79452" lon="4.23563">
        <ele>127.99</ele>
        <time>2026-05-02T08:41:29.791Z</time>
      </trkpt>
      <trkpt lat="43.79451" lon="4.23556">
        <ele>129.45</ele>
        <time>2026-05-02T08:41:34.914Z</time>
      </trkpt>
      <trkpt lat="43.79452" lon="4.23548">
        <ele>131.67</ele>
        <time>2026-05-02T08:41:40.195Z</time>
      </trkpt>
      <trkpt lat="43.79452" lon="4.23541">
        <ele>132.69</ele>
        <time>2026-05-02T08:41:45.304Z</time>
      </trkpt>
      <trkpt lat="43.7945" lon="4.23537">
        <ele>133.26</ele>
        <time>2026-05-02T08:41:50.427Z</time>
      </trkpt>
      <trkpt lat="43.79449" lon="4.2353">
        <ele>132.44</ele>
        <time>2026-05-02T08:41:55.871Z</time>
      </trkpt>
      <trkpt lat="43.79451" lon="4.23525">
        <ele>133.73</ele>
        <time>2026-05-02T08:42:01.311Z</time>
      </trkpt>
      <trkpt lat="43.79454" lon="4.23517">
        <ele>133.9</ele>
        <time>2026-05-02T08:42:06.326Z</time>
      </trkpt>
      <trkpt lat="43.79457" lon="4.2351">
        <ele>131.96</ele>
        <time>2026-05-02T08:42:11.340Z</time>
      </trkpt>
      <trkpt lat="43.79461" lon="4.23503">
        <ele>132.87</ele>
        <time>2026-05-02T08:42:16.356Z</time>
      </trkpt>
      <trkpt lat="43.79466" lon="4.23499">
        <ele>132.61</ele>
        <time>2026-05-02T08:42:21.356Z</time>
      </trkpt>
      <trkpt lat="43.7947" lon="4.23494">
        <ele>131.74</ele>
        <time>2026-05-02T08:42:27.234Z</time>
      </trkpt>
      <trkpt lat="43.79475" lon="4.23496">
        <ele>132.26</ele>
        <time>2026-05-02T08:42:32.834Z</time>
      </trkpt>
      <trkpt lat="43.7948" lon="4.23495">
        <ele>131.1</ele>
        <time>2026-05-02T08:42:38.439Z</time>
      </trkpt>
      <trkpt lat="43.79481" lon="4.23491">
        <ele>131.18</ele>
        <time>2026-05-02T08:42:44.311Z</time>
      </trkpt>
      <trkpt lat="43.79482" lon="4.23492">
        <ele>132.13</ele>
        <time>2026-05-02T08:42:50.255Z</time>
      </trkpt>
      <trkpt lat="43.79482" lon="4.23491">
        <ele>131.05</ele>
        <time>2026-05-02T08:42:57.155Z</time>
      </trkpt>
      <trkpt lat="43.79487" lon="4.23487">
        <ele>133</ele>
        <time>2026-05-02T08:43:03.305Z</time>
      </trkpt>
      <trkpt lat="43.79491" lon="4.23483">
        <ele>133.79</ele>
        <time>2026-05-02T08:43:08.856Z</time>
      </trkpt>
      <trkpt lat="43.79495" lon="4.23475">
        <ele>133.97</ele>
        <time>2026-05-02T08:43:14.432Z</time>
      </trkpt>
      <trkpt lat="43.79501" lon="4.23467">
        <ele>134.87</ele>
        <time>2026-05-02T08:43:19.695Z</time>
      </trkpt>
      <trkpt lat="43.79505" lon="4.2346">
        <ele>134.03</ele>
        <time>2026-05-02T08:43:25.219Z</time>
      </trkpt>
      <trkpt lat="43.79512" lon="4.23457">
        <ele>135.83</ele>
        <time>2026-05-02T08:43:31.089Z</time>
      </trkpt>
      <trkpt lat="43.79515" lon="4.23453">
        <ele>136.09</ele>
        <time>2026-05-02T08:43:36.279Z</time>
      </trkpt>
      <trkpt lat="43.79518" lon="4.23448">
        <ele>135.83</ele>
        <time>2026-05-02T08:43:41.407Z</time>
      </trkpt>
      <trkpt lat="43.79522" lon="4.23444">
        <ele>136.62</ele>
        <time>2026-05-02T08:43:46.422Z</time>
      </trkpt>
      <trkpt lat="43.79518" lon="4.23447">
        <ele>135.59</ele>
        <time>2026-05-02T08:43:52.069Z</time>
      </trkpt>
      <trkpt lat="43.79516" lon="4.23449">
        <ele>134.03</ele>
        <time>2026-05-02T08:43:57.306Z</time>
      </trkpt>
      <trkpt lat="43.79517" lon="4.2345">
        <ele>134.76</ele>
        <time>2026-05-02T08:44:02.321Z</time>
      </trkpt>
      <trkpt lat="43.79518" lon="4.23451">
        <ele>134.8</ele>
        <time>2026-05-02T08:44:12.345Z</time>
      </trkpt>
      <trkpt lat="43.79517" lon="4.2345">
        <ele>134</ele>
        <time>2026-05-02T08:44:21.340Z</time>
      </trkpt>
      <trkpt lat="43.79517" lon="4.23448">
        <ele>134.62</ele>
        <time>2026-05-02T08:44:26.357Z</time>
      </trkpt>
      <trkpt lat="43.79519" lon="4.23448">
        <ele>135.65</ele>
        <time>2026-05-02T08:44:31.372Z</time>
      </trkpt>
      <trkpt lat="43.7952" lon="4.23448">
        <ele>135.28</ele>
        <time>2026-05-02T08:44:37.348Z</time>
      </trkpt>
      <trkpt lat="43.79521" lon="4.23449">
        <ele>136.46</ele>
        <time>2026-05-02T08:44:45.283Z</time>
      </trkpt>
      <trkpt lat="43.79523" lon="4.23449">
        <ele>134.79</ele>
        <time>2026-05-02T08:44:50.519Z</time>
      </trkpt>
      <trkpt lat="43.79528" lon="4.23448">
        <ele>137.83</ele>
        <time>2026-05-02T08:44:55.891Z</time>
      </trkpt>
      <trkpt lat="43.79533" lon="4.23442">
        <ele>138.92</ele>
        <time>2026-05-02T08:45:01.014Z</time>
      </trkpt>
      <trkpt lat="43.79535" lon="4.23432">
        <ele>136.9</ele>
        <time>2026-05-02T08:45:06.154Z</time>
      </trkpt>
      <trkpt lat="43.79537" lon="4.23425">
        <ele>138.64</ele>
        <time>2026-05-02T08:45:11.391Z</time>
      </trkpt>
      <trkpt lat="43.7954" lon="4.23427">
        <ele>141.14</ele>
        <time>2026-05-02T08:45:16.413Z</time>
      </trkpt>
      <trkpt lat="43.79543" lon="4.23426">
        <ele>139.5</ele>
        <time>2026-05-02T08:45:22.055Z</time>
      </trkpt>
      <trkpt lat="43.79548" lon="4.23418">
        <ele>139.76</ele>
        <time>2026-05-02T08:45:27.131Z</time>
      </trkpt>
      <trkpt lat="43.79549" lon="4.23408">
        <ele>139.48</ele>
        <time>2026-05-02T08:45:32.351Z</time>
      </trkpt>
      <trkpt lat="43.79554" lon="4.234">
        <ele>139.77</ele>
        <time>2026-05-02T08:45:38.244Z</time>
      </trkpt>
      <trkpt lat="43.79559" lon="4.23401">
        <ele>141.16</ele>
        <time>2026-05-02T08:45:43.410Z</time>
      </trkpt>
      <trkpt lat="43.79565" lon="4.23404">
        <ele>140.81</ele>
        <time>2026-05-02T08:45:48.425Z</time>
      </trkpt>
      <trkpt lat="43.7957" lon="4.23409">
        <ele>140.21</ele>
        <time>2026-05-02T08:45:54.401Z</time>
      </trkpt>
      <trkpt lat="43.79576" lon="4.23415">
        <ele>140.65</ele>
        <time>2026-05-02T08:45:59.462Z</time>
      </trkpt>
      <trkpt lat="43.79581" lon="4.23422">
        <ele>140.04</ele>
        <time>2026-05-02T08:46:04.667Z</time>
      </trkpt>
      <trkpt lat="43.79588" lon="4.23428">
        <ele>140.25</ele>
        <time>2026-05-02T08:46:10.463Z</time>
      </trkpt>
      <trkpt lat="43.79591" lon="4.23438">
        <ele>141.21</ele>
        <time>2026-05-02T08:46:15.485Z</time>
      </trkpt>
      <trkpt lat="43.79595" lon="4.23446">
        <ele>139.5</ele>
        <time>2026-05-02T08:46:20.628Z</time>
      </trkpt>
      <trkpt lat="43.79601" lon="4.23451">
        <ele>141.52</ele>
        <time>2026-05-02T08:46:26.204Z</time>
      </trkpt>
      <trkpt lat="43.79607" lon="4.23456">
        <ele>141.25</ele>
        <time>2026-05-02T08:46:31.322Z</time>
      </trkpt>
      <trkpt lat="43.79613" lon="4.23462">
        <ele>140.59</ele>
        <time>2026-05-02T08:46:37.403Z</time>
      </trkpt>
      <trkpt lat="43.79619" lon="4.23467">
        <ele>141.65</ele>
        <time>2026-05-02T08:46:42.483Z</time>
      </trkpt>
      <trkpt lat="43.79624" lon="4.23473">
        <ele>141.13</ele>
        <time>2026-05-02T08:46:47.615Z</time>
      </trkpt>
      <trkpt lat="43.79628" lon="4.23479">
        <ele>141.71</ele>
        <time>2026-05-02T08:46:52.635Z</time>
      </trkpt>
      <trkpt lat="43.79634" lon="4.23487">
        <ele>143.4</ele>
        <time>2026-05-02T08:46:58.224Z</time>
      </trkpt>
      <trkpt lat="43.79643" lon="4.23487">
        <ele>141.61</ele>
        <time>2026-05-02T08:47:03.522Z</time>
      </trkpt>
      <trkpt lat="43.79649" lon="4.23488">
        <ele>141.07</ele>
        <time>2026-05-02T08:47:08.788Z</time>
      </trkpt>
      <trkpt lat="43.79654" lon="4.23492">
        <ele>142.38</ele>
        <time>2026-05-02T08:47:13.990Z</time>
      </trkpt>
      <trkpt lat="43.79661" lon="4.23494">
        <ele>142.22</ele>
        <time>2026-05-02T08:47:19.148Z</time>
      </trkpt>
      <trkpt lat="43.79668" lon="4.23498">
        <ele>142.75</ele>
        <time>2026-05-02T08:47:24.270Z</time>
      </trkpt>
      <trkpt lat="43.79673" lon="4.23506">
        <ele>142.71</ele>
        <time>2026-05-02T08:47:30.087Z</time>
      </trkpt>
      <trkpt lat="43.79677" lon="4.23515">
        <ele>147.17</ele>
        <time>2026-05-02T08:47:35.304Z</time>
      </trkpt>
      <trkpt lat="43.79683" lon="4.23523">
        <ele>147.17</ele>
        <time>2026-05-02T08:47:40.686Z</time>
      </trkpt>
      <trkpt lat="43.79689" lon="4.23529">
        <ele>146.61</ele>
        <time>2026-05-02T08:47:45.905Z</time>
      </trkpt>
      <trkpt lat="43.79693" lon="4.23536">
        <ele>145.91</ele>
        <time>2026-05-02T08:47:51.352Z</time>
      </trkpt>
      <trkpt lat="43.79697" lon="4.23537">
        <ele>147.25</ele>
        <time>2026-05-02T08:47:56.367Z</time>
      </trkpt>
      <trkpt lat="43.797" lon="4.23539">
        <ele>147.17</ele>
        <time>2026-05-02T08:48:01.804Z</time>
      </trkpt>
      <trkpt lat="43.79706" lon="4.23542">
        <ele>147.17</ele>
        <time>2026-05-02T08:48:07.410Z</time>
      </trkpt>
      <trkpt lat="43.79711" lon="4.23552">
        <ele>148.2</ele>
        <time>2026-05-02T08:48:13.345Z</time>
      </trkpt>
      <trkpt lat="43.79716" lon="4.23558">
        <ele>146.96</ele>
        <time>2026-05-02T08:48:19.207Z</time>
      </trkpt>
      <trkpt lat="43.79722" lon="4.2356">
        <ele>147.17</ele>
        <time>2026-05-02T08:48:24.433Z</time>
      </trkpt>
      <trkpt lat="43.79729" lon="4.23563">
        <ele>147.17</ele>
        <time>2026-05-02T08:48:30.046Z</time>
      </trkpt>
      <trkpt lat="43.79735" lon="4.23566">
        <ele>147.32</ele>
        <time>2026-05-02T08:48:35.266Z</time>
      </trkpt>
      <trkpt lat="43.7974" lon="4.2357">
        <ele>147.68</ele>
        <time>2026-05-02T08:48:40.331Z</time>
      </trkpt>
      <trkpt lat="43.79746" lon="4.23574">
        <ele>147.85</ele>
        <time>2026-05-02T08:48:45.430Z</time>
      </trkpt>
      <trkpt lat="43.79754" lon="4.23577">
        <ele>147.57</ele>
        <time>2026-05-02T08:48:51.086Z</time>
      </trkpt>
      <trkpt lat="43.79761" lon="4.2358">
        <ele>148.82</ele>
        <time>2026-05-02T08:48:56.338Z</time>
      </trkpt>
      <trkpt lat="43.79767" lon="4.23584">
        <ele>148.36</ele>
        <time>2026-05-02T08:49:02.184Z</time>
      </trkpt>
      <trkpt lat="43.79774" lon="4.23587">
        <ele>148.71</ele>
        <time>2026-05-02T08:49:08.028Z</time>
      </trkpt>
      <trkpt lat="43.79781" lon="4.23591">
        <ele>148.64</ele>
        <time>2026-05-02T08:49:13.410Z</time>
      </trkpt>
      <trkpt lat="43.79787" lon="4.23596">
        <ele>150.47</ele>
        <time>2026-05-02T08:49:19.280Z</time>
      </trkpt>
      <trkpt lat="43.79793" lon="4.23603">
        <ele>151.07</ele>
        <time>2026-05-02T08:49:25.144Z</time>
      </trkpt>
      <trkpt lat="43.79798" lon="4.23607">
        <ele>151.07</ele>
        <time>2026-05-02T08:49:30.377Z</time>
      </trkpt>
      <trkpt lat="43.79802" lon="4.23613">
        <ele>151.07</ele>
        <time>2026-05-02T08:49:35.447Z</time>
      </trkpt>
      <trkpt lat="43.79805" lon="4.2362">
        <ele>151.07</ele>
        <time>2026-05-02T08:49:40.507Z</time>
      </trkpt>
      <trkpt lat="43.79806" lon="4.23629">
        <ele>151.07</ele>
        <time>2026-05-02T08:49:45.874Z</time>
      </trkpt>
      <trkpt lat="43.79808" lon="4.23637">
        <ele>151.07</ele>
        <time>2026-05-02T08:49:51.445Z</time>
      </trkpt>
      <trkpt lat="43.79809" lon="4.23645">
        <ele>151.07</ele>
        <time>2026-05-02T08:49:57.065Z</time>
      </trkpt>
      <trkpt lat="43.79809" lon="4.23651">
        <ele>153.72</ele>
        <time>2026-05-02T08:50:02.168Z</time>
      </trkpt>
      <trkpt lat="43.79813" lon="4.23658">
        <ele>155.22</ele>
        <time>2026-05-02T08:50:07.203Z</time>
      </trkpt>
      <trkpt lat="43.79816" lon="4.23665">
        <ele>154.63</ele>
        <time>2026-05-02T08:50:12.707Z</time>
      </trkpt>
      <trkpt lat="43.79819" lon="4.23671">
        <ele>153.43</ele>
        <time>2026-05-02T08:50:17.861Z</time>
      </trkpt>
      <trkpt lat="43.79822" lon="4.23678">
        <ele>153.61</ele>
        <time>2026-05-02T08:50:22.985Z</time>
      </trkpt>
      <trkpt lat="43.79824" lon="4.23687">
        <ele>153.59</ele>
        <time>2026-05-02T08:50:28.426Z</time>
      </trkpt>
      <trkpt lat="43.79823" lon="4.23696">
        <ele>155.29</ele>
        <time>2026-05-02T08:50:33.426Z</time>
      </trkpt>
      <trkpt lat="43.79823" lon="4.23707">
        <ele>157.9</ele>
        <time>2026-05-02T08:50:38.468Z</time>
      </trkpt>
      <trkpt lat="43.79824" lon="4.23717">
        <ele>155.97</ele>
        <time>2026-05-02T08:50:43.689Z</time>
      </trkpt>
      <trkpt lat="43.79825" lon="4.23725">
        <ele>156.55</ele>
        <time>2026-05-02T08:50:49.341Z</time>
      </trkpt>
      <trkpt lat="43.79826" lon="4.23727">
        <ele>155.31</ele>
        <time>2026-05-02T08:50:54.947Z</time>
      </trkpt>
      <trkpt lat="43.79826" lon="4.23729">
        <ele>152.79</ele>
        <time>2026-05-02T08:51:00.164Z</time>
      </trkpt>
      <trkpt lat="43.79832" lon="4.23737">
        <ele>155.03</ele>
        <time>2026-05-02T08:51:05.347Z</time>
      </trkpt>
      <trkpt lat="43.79835" lon="4.23747">
        <ele>154.6</ele>
        <time>2026-05-02T08:51:10.362Z</time>
      </trkpt>
      <trkpt lat="43.79842" lon="4.23752">
        <ele>154.64</ele>
        <time>2026-05-02T08:51:16.244Z</time>
      </trkpt>
      <trkpt lat="43.79848" lon="4.23751">
        <ele>154.21</ele>
        <time>2026-05-02T08:51:21.354Z</time>
      </trkpt>
      <trkpt lat="43.79851" lon="4.23749">
        <ele>152.73</ele>
        <time>2026-05-02T08:51:26.368Z</time>
      </trkpt>
      <trkpt lat="43.79855" lon="4.23749">
        <ele>154.15</ele>
        <time>2026-05-02T08:51:32.345Z</time>
      </trkpt>
      <trkpt lat="43.79861" lon="4.23747">
        <ele>153.47</ele>
        <time>2026-05-02T08:51:37.790Z</time>
      </trkpt>
      <trkpt lat="43.79868" lon="4.23746">
        <ele>154.28</ele>
        <time>2026-05-02T08:51:43.302Z</time>
      </trkpt>
      <trkpt lat="43.79878" lon="4.23743">
        <ele>154.62</ele>
        <time>2026-05-02T08:51:49.244Z</time>
      </trkpt>
      <trkpt lat="43.79884" lon="4.23741">
        <ele>154.71</ele>
        <time>2026-05-02T08:51:54.300Z</time>
      </trkpt>
      <trkpt lat="43.79892" lon="4.2374">
        <ele>154.19</ele>
        <time>2026-05-02T08:52:00.226Z</time>
      </trkpt>
      <trkpt lat="43.79897" lon="4.23739">
        <ele>154.46</ele>
        <time>2026-05-02T08:52:05.287Z</time>
      </trkpt>
      <trkpt lat="43.79903" lon="4.23737">
        <ele>153.66</ele>
        <time>2026-05-02T08:52:10.333Z</time>
      </trkpt>
      <trkpt lat="43.79909" lon="4.23735">
        <ele>154.09</ele>
        <time>2026-05-02T08:52:15.672Z</time>
      </trkpt>
      <trkpt lat="43.79914" lon="4.23738">
        <ele>154.16</ele>
        <time>2026-05-02T08:52:20.942Z</time>
      </trkpt>
      <trkpt lat="43.79915" lon="4.23739">
        <ele>152.16</ele>
        <time>2026-05-02T08:52:26.338Z</time>
      </trkpt>
      <trkpt lat="43.79915" lon="4.23742">
        <ele>152.15</ele>
        <time>2026-05-02T08:52:31.354Z</time>
      </trkpt>
      <trkpt lat="43.79922" lon="4.23747">
        <ele>151.82</ele>
        <time>2026-05-02T08:52:36.368Z</time>
      </trkpt>
      <trkpt lat="43.79926" lon="4.23744">
        <ele>151.55</ele>
        <time>2026-05-02T08:52:41.597Z</time>
      </trkpt>
      <trkpt lat="43.79932" lon="4.23743">
        <ele>152.13</ele>
        <time>2026-05-02T08:52:47.247Z</time>
      </trkpt>
      <trkpt lat="43.79938" lon="4.23746">
        <ele>151.94</ele>
        <time>2026-05-02T08:52:52.376Z</time>
      </trkpt>
      <trkpt lat="43.79944" lon="4.23746">
        <ele>151.05</ele>
        <time>2026-05-02T08:52:57.848Z</time>
      </trkpt>
      <trkpt lat="43.79951" lon="4.23746">
        <ele>151.56</ele>
        <time>2026-05-02T08:53:02.891Z</time>
      </trkpt>
      <trkpt lat="43.79955" lon="4.23741">
        <ele>151.16</ele>
        <time>2026-05-02T08:53:07.948Z</time>
      </trkpt>
      <trkpt lat="43.79959" lon="4.23739">
        <ele>150.72</ele>
        <time>2026-05-02T08:53:13.397Z</time>
      </trkpt>
      <trkpt lat="43.79967" lon="4.23742">
        <ele>153.19</ele>
        <time>2026-05-02T08:53:19.223Z</time>
      </trkpt>
      <trkpt lat="43.79974" lon="4.23741">
        <ele>152.73</ele>
        <time>2026-05-02T08:53:24.249Z</time>
      </trkpt>
      <trkpt lat="43.7998" lon="4.23743">
        <ele>152.38</ele>
        <time>2026-05-02T08:53:29.683Z</time>
      </trkpt>
      <trkpt lat="43.79985" lon="4.23746">
        <ele>151.33</ele>
        <time>2026-05-02T08:53:35.301Z</time>
      </trkpt>
      <trkpt lat="43.79988" lon="4.23742">
        <ele>152.19</ele>
        <time>2026-05-02T08:53:40.346Z</time>
      </trkpt>
      <trkpt lat="43.79991" lon="4.23741">
        <ele>152.3</ele>
        <time>2026-05-02T08:53:45.410Z</time>
      </trkpt>
      <trkpt lat="43.79992" lon="4.23744">
        <ele>151.82</ele>
        <time>2026-05-02T08:53:51.384Z</time>
      </trkpt>
      <trkpt lat="43.7999" lon="4.23744">
        <ele>150.31</ele>
        <time>2026-05-02T08:53:56.401Z</time>
      </trkpt>
      <trkpt lat="43.79995" lon="4.23754">
        <ele>150.89</ele>
        <time>2026-05-02T08:54:02.165Z</time>
      </trkpt>
      <trkpt lat="43.79996" lon="4.23764">
        <ele>148.65</ele>
        <time>2026-05-02T08:54:07.392Z</time>
      </trkpt>
      <trkpt lat="43.80002" lon="4.23769">
        <ele>147.72</ele>
        <time>2026-05-02T08:54:13.367Z</time>
      </trkpt>
      <trkpt lat="43.80008" lon="4.23773">
        <ele>147.07</ele>
        <time>2026-05-02T08:54:18.801Z</time>
      </trkpt>
      <trkpt lat="43.80014" lon="4.23778">
        <ele>146.19</ele>
        <time>2026-05-02T08:54:23.968Z</time>
      </trkpt>
      <trkpt lat="43.80021" lon="4.23779">
        <ele>147.05</ele>
        <time>2026-05-02T08:54:29.065Z</time>
      </trkpt>
      <trkpt lat="43.80028" lon="4.23784">
        <ele>149.15</ele>
        <time>2026-05-02T08:54:34.389Z</time>
      </trkpt>
      <trkpt lat="43.80035" lon="4.23788">
        <ele>149.32</ele>
        <time>2026-05-02T08:54:40.145Z</time>
      </trkpt>
      <trkpt lat="43.80041" lon="4.23789">
        <ele>150.12</ele>
        <time>2026-05-02T08:54:45.811Z</time>
      </trkpt>
      <trkpt lat="43.80049" lon="4.23791">
        <ele>149.49</ele>
        <time>2026-05-02T08:54:51.356Z</time>
      </trkpt>
      <trkpt lat="43.80056" lon="4.23794">
        <ele>151.24</ele>
        <time>2026-05-02T08:54:57.131Z</time>
      </trkpt>
      <trkpt lat="43.80061" lon="4.23795">
        <ele>151.23</ele>
        <time>2026-05-02T08:55:02.787Z</time>
      </trkpt>
      <trkpt lat="43.80067" lon="4.23797">
        <ele>150.56</ele>
        <time>2026-05-02T08:55:08.322Z</time>
      </trkpt>
      <trkpt lat="43.80073" lon="4.23799">
        <ele>151.25</ele>
        <time>2026-05-02T08:55:14.203Z</time>
      </trkpt>
      <trkpt lat="43.8008" lon="4.23804">
        <ele>151.5</ele>
        <time>2026-05-02T08:55:19.314Z</time>
      </trkpt>
      <trkpt lat="43.80086" lon="4.23806">
        <ele>151.08</ele>
        <time>2026-05-02T08:55:24.329Z</time>
      </trkpt>
      <trkpt lat="43.80092" lon="4.23807">
        <ele>151</ele>
        <time>2026-05-02T08:55:30.412Z</time>
      </trkpt>
      <trkpt lat="43.80098" lon="4.2381">
        <ele>149.85</ele>
        <time>2026-05-02T08:55:36.067Z</time>
      </trkpt>
      <trkpt lat="43.80104" lon="4.23812">
        <ele>150.04</ele>
        <time>2026-05-02T08:55:41.403Z</time>
      </trkpt>
      <trkpt lat="43.8011" lon="4.23812">
        <ele>150</ele>
        <time>2026-05-02T08:55:46.418Z</time>
      </trkpt>
      <trkpt lat="43.80117" lon="4.23811">
        <ele>150.65</ele>
        <time>2026-05-02T08:55:52.102Z</time>
      </trkpt>
      <trkpt lat="43.80123" lon="4.23813">
        <ele>151.63</ele>
        <time>2026-05-02T08:55:57.409Z</time>
      </trkpt>
      <trkpt lat="43.8013" lon="4.2381">
        <ele>149.79</ele>
        <time>2026-05-02T08:56:02.845Z</time>
      </trkpt>
      <trkpt lat="43.80136" lon="4.23806">
        <ele>151.43</ele>
        <time>2026-05-02T08:56:08.286Z</time>
      </trkpt>
      <trkpt lat="43.80138" lon="4.23799">
        <ele>152.96</ele>
        <time>2026-05-02T08:56:13.386Z</time>
      </trkpt>
      <trkpt lat="43.80141" lon="4.2379">
        <ele>153.49</ele>
        <time>2026-05-02T08:56:19.028Z</time>
      </trkpt>
      <trkpt lat="43.80145" lon="4.23785">
        <ele>153.63</ele>
        <time>2026-05-02T08:56:24.372Z</time>
      </trkpt>
      <trkpt lat="43.8015" lon="4.23778">
        <ele>153.74</ele>
        <time>2026-05-02T08:56:30.382Z</time>
      </trkpt>
      <trkpt lat="43.80152" lon="4.2377">
        <ele>154.47</ele>
        <time>2026-05-02T08:56:35.791Z</time>
      </trkpt>
      <trkpt lat="43.80155" lon="4.23763">
        <ele>156.67</ele>
        <time>2026-05-02T08:56:41.224Z</time>
      </trkpt>
      <trkpt lat="43.80158" lon="4.23758">
        <ele>156.54</ele>
        <time>2026-05-02T08:56:46.732Z</time>
      </trkpt>
      <trkpt lat="43.80161" lon="4.23751">
        <ele>156.67</ele>
        <time>2026-05-02T08:56:52.410Z</time>
      </trkpt>
      <trkpt lat="43.80164" lon="4.23745">
        <ele>157.96</ele>
        <time>2026-05-02T08:56:57.443Z</time>
      </trkpt>
      <trkpt lat="43.80168" lon="4.2374">
        <ele>157.9</ele>
        <time>2026-05-02T08:57:02.474Z</time>
      </trkpt>
      <trkpt lat="43.80173" lon="4.23737">
        <ele>158</ele>
        <time>2026-05-02T08:57:08.368Z</time>
      </trkpt>
      <trkpt lat="43.80178" lon="4.23736">
        <ele>158.43</ele>
        <time>2026-05-02T08:57:13.385Z</time>
      </trkpt>
      <trkpt lat="43.80182" lon="4.23739">
        <ele>158.35</ele>
        <time>2026-05-02T08:57:18.965Z</time>
      </trkpt>
      <trkpt lat="43.80186" lon="4.23745">
        <ele>160.5</ele>
        <time>2026-05-02T08:57:24.049Z</time>
      </trkpt>
      <trkpt lat="43.80191" lon="4.23749">
        <ele>160.52</ele>
        <time>2026-05-02T08:57:29.390Z</time>
      </trkpt>
      <trkpt lat="43.802" lon="4.23755">
        <ele>159.43</ele>
        <time>2026-05-02T08:57:35.366Z</time>
      </trkpt>
      <trkpt lat="43.80208" lon="4.23759">
        <ele>160.48</ele>
        <time>2026-05-02T08:57:40.605Z</time>
      </trkpt>
      <trkpt lat="43.80214" lon="4.23763">
        <ele>161.87</ele>
        <time>2026-05-02T08:57:46.272Z</time>
      </trkpt>
      <trkpt lat="43.80219" lon="4.23761">
        <ele>162.65</ele>
        <time>2026-05-02T08:57:51.372Z</time>
      </trkpt>
      <trkpt lat="43.80225" lon="4.23755">
        <ele>163.12</ele>
        <time>2026-05-02T08:57:57.052Z</time>
      </trkpt>
      <trkpt lat="43.8023" lon="4.2375">
        <ele>162.8</ele>
        <time>2026-05-02T08:58:02.525Z</time>
      </trkpt>
      <trkpt lat="43.80234" lon="4.23744">
        <ele>163.35</ele>
        <time>2026-05-02T08:58:08.289Z</time>
      </trkpt>
      <trkpt lat="43.80239" lon="4.23737">
        <ele>162.86</ele>
        <time>2026-05-02T08:58:14.183Z</time>
      </trkpt>
      <trkpt lat="43.80243" lon="4.23734">
        <ele>163.21</ele>
        <time>2026-05-02T08:58:19.321Z</time>
      </trkpt>
      <trkpt lat="43.80243" lon="4.23735">
        <ele>162.16</ele>
        <time>2026-05-02T08:58:25.501Z</time>
      </trkpt>
      <trkpt lat="43.80244" lon="4.23734">
        <ele>161.35</ele>
        <time>2026-05-02T08:58:31.601Z</time>
      </trkpt>
      <trkpt lat="43.80254" lon="4.23733">
        <ele>161.28</ele>
        <time>2026-05-02T08:58:37.224Z</time>
      </trkpt>
      <trkpt lat="43.80254" lon="4.23723">
        <ele>160.75</ele>
        <time>2026-05-02T08:58:42.264Z</time>
      </trkpt>
      <trkpt lat="43.80253" lon="4.23715">
        <ele>158.23</ele>
        <time>2026-05-02T08:58:47.930Z</time>
      </trkpt>
      <trkpt lat="43.80254" lon="4.23714">
        <ele>157.52</ele>
        <time>2026-05-02T08:58:53.006Z</time>
      </trkpt>
      <trkpt lat="43.80256" lon="4.2371">
        <ele>156.76</ele>
        <time>2026-05-02T08:58:58.324Z</time>
      </trkpt>
      <trkpt lat="43.80257" lon="4.23707">
        <ele>155.44</ele>
        <time>2026-05-02T08:59:03.400Z</time>
      </trkpt>
      <trkpt lat="43.80256" lon="4.23706">
        <ele>154.95</ele>
        <time>2026-05-02T08:59:10.250Z</time>
      </trkpt>
      <trkpt lat="43.80256" lon="4.23704">
        <ele>153.43</ele>
        <time>2026-05-02T08:59:15.457Z</time>
      </trkpt>
      <trkpt lat="43.80254" lon="4.23702">
        <ele>152.84</ele>
        <time>2026-05-02T08:59:21.408Z</time>
      </trkpt>
      <trkpt lat="43.80254" lon="4.23698">
        <ele>151.29</ele>
        <time>2026-05-02T08:59:27.269Z</time>
      </trkpt>
      <trkpt lat="43.80253" lon="4.23691">
        <ele>149.94</ele>
        <time>2026-05-02T08:59:32.317Z</time>
      </trkpt>
      <trkpt lat="43.80252" lon="4.23684">
        <ele>149.27</ele>
        <time>2026-05-02T08:59:37.439Z</time>
      </trkpt>
      <trkpt lat="43.80253" lon="4.23681">
        <ele>148.22</ele>
        <time>2026-05-02T08:59:43.410Z</time>
      </trkpt>
      <trkpt lat="43.80253" lon="4.2368">
        <ele>146.81</ele>
        <time>2026-05-02T08:59:48.429Z</time>
      </trkpt>
      <trkpt lat="43.80256" lon="4.23672">
        <ele>146.02</ele>
        <time>2026-05-02T08:59:53.430Z</time>
      </trkpt>
      <trkpt lat="43.80258" lon="4.23665">
        <ele>144.67</ele>
        <time>2026-05-02T08:59:58.987Z</time>
      </trkpt>
      <trkpt lat="43.80258" lon="4.23661">
        <ele>144.07</ele>
        <time>2026-05-02T09:00:03.994Z</time>
      </trkpt>
      <trkpt lat="43.80257" lon="4.23658">
        <ele>143.15</ele>
        <time>2026-05-02T09:00:09.312Z</time>
      </trkpt>
      <trkpt lat="43.80257" lon="4.23655">
        <ele>142.1</ele>
        <time>2026-05-02T09:00:14.736Z</time>
      </trkpt>
      <trkpt lat="43.80255" lon="4.23647">
        <ele>141.62</ele>
        <time>2026-05-02T09:00:19.750Z</time>
      </trkpt>
      <trkpt lat="43.80252" lon="4.23641">
        <ele>139.44</ele>
        <time>2026-05-02T09:00:25.150Z</time>
      </trkpt>
      <trkpt lat="43.80252" lon="4.23637">
        <ele>139.11</ele>
        <time>2026-05-02T09:00:30.752Z</time>
      </trkpt>
      <trkpt lat="43.80251" lon="4.23633">
        <ele>139.04</ele>
        <time>2026-05-02T09:00:35.874Z</time>
      </trkpt>
      <trkpt lat="43.80248" lon="4.23624">
        <ele>137.93</ele>
        <time>2026-05-02T09:00:40.888Z</time>
      </trkpt>
      <trkpt lat="43.80246" lon="4.23617">
        <ele>137.37</ele>
        <time>2026-05-02T09:00:45.993Z</time>
      </trkpt>
      <trkpt lat="43.80246" lon="4.23611">
        <ele>136.59</ele>
        <time>2026-05-02T09:00:51.248Z</time>
      </trkpt>
      <trkpt lat="43.80243" lon="4.23603">
        <ele>136.09</ele>
        <time>2026-05-02T09:00:56.722Z</time>
      </trkpt>
      <trkpt lat="43.80238" lon="4.23598">
        <ele>135.54</ele>
        <time>2026-05-02T09:01:01.774Z</time>
      </trkpt>
      <trkpt lat="43.80235" lon="4.2359">
        <ele>135.14</ele>
        <time>2026-05-02T09:01:07.335Z</time>
      </trkpt>
      <trkpt lat="43.80234" lon="4.23582">
        <ele>135.88</ele>
        <time>2026-05-02T09:01:12.669Z</time>
      </trkpt>
      <trkpt lat="43.80234" lon="4.23575">
        <ele>136.77</ele>
        <time>2026-05-02T09:01:18.191Z</time>
      </trkpt>
      <trkpt lat="43.80233" lon="4.23568">
        <ele>136.46</ele>
        <time>2026-05-02T09:01:23.408Z</time>
      </trkpt>
      <trkpt lat="43.80232" lon="4.2356">
        <ele>136.82</ele>
        <time>2026-05-02T09:01:29.170Z</time>
      </trkpt>
      <trkpt lat="43.80229" lon="4.2355">
        <ele>137.76</ele>
        <time>2026-05-02T09:01:34.399Z</time>
      </trkpt>
      <trkpt lat="43.80227" lon="4.23544">
        <ele>138.02</ele>
        <time>2026-05-02T09:01:39.880Z</time>
      </trkpt>
      <trkpt lat="43.80223" lon="4.23539">
        <ele>138.8</ele>
        <time>2026-05-02T09:01:45.337Z</time>
      </trkpt>
      <trkpt lat="43.80221" lon="4.23534">
        <ele>139.26</ele>
        <time>2026-05-02T09:01:50.407Z</time>
      </trkpt>
      <trkpt lat="43.80219" lon="4.23525">
        <ele>139.15</ele>
        <time>2026-05-02T09:01:55.957Z</time>
      </trkpt>
      <trkpt lat="43.80215" lon="4.23518">
        <ele>138.73</ele>
        <time>2026-05-02T09:02:01.395Z</time>
      </trkpt>
      <trkpt lat="43.80215" lon="4.23513">
        <ele>139.08</ele>
        <time>2026-05-02T09:02:06.411Z</time>
      </trkpt>
      <trkpt lat="43.80216" lon="4.23509">
        <ele>139.99</ele>
        <time>2026-05-02T09:02:11.426Z</time>
      </trkpt>
      <trkpt lat="43.80216" lon="4.23501">
        <ele>139.8</ele>
        <time>2026-05-02T09:02:17.039Z</time>
      </trkpt>
      <trkpt lat="43.80214" lon="4.23496">
        <ele>140.58</ele>
        <time>2026-05-02T09:02:22.416Z</time>
      </trkpt>
      <trkpt lat="43.80213" lon="4.23493">
        <ele>141.25</ele>
        <time>2026-05-02T09:02:27.799Z</time>
      </trkpt>
      <trkpt lat="43.80209" lon="4.23487">
        <ele>141.44</ele>
        <time>2026-05-02T09:02:33.356Z</time>
      </trkpt>
      <trkpt lat="43.80206" lon="4.23479">
        <ele>142.24</ele>
        <time>2026-05-02T09:02:38.612Z</time>
      </trkpt>
      <trkpt lat="43.80205" lon="4.23474">
        <ele>141.96</ele>
        <time>2026-05-02T09:02:44.454Z</time>
      </trkpt>
      <trkpt lat="43.80202" lon="4.23468">
        <ele>141.66</ele>
        <time>2026-05-02T09:02:50.277Z</time>
      </trkpt>
      <trkpt lat="43.80201" lon="4.23463">
        <ele>143.15</ele>
        <time>2026-05-02T09:02:55.389Z</time>
      </trkpt>
      <trkpt lat="43.802" lon="4.23457">
        <ele>144.6</ele>
        <time>2026-05-02T09:03:01.056Z</time>
      </trkpt>
      <trkpt lat="43.80197" lon="4.23451">
        <ele>145.49</ele>
        <time>2026-05-02T09:03:06.379Z</time>
      </trkpt>
      <trkpt lat="43.80194" lon="4.23447">
        <ele>146.58</ele>
        <time>2026-05-02T09:03:11.395Z</time>
      </trkpt>
      <trkpt lat="43.80193" lon="4.23441">
        <ele>145.92</ele>
        <time>2026-05-02T09:03:17.022Z</time>
      </trkpt>
      <trkpt lat="43.80193" lon="4.23435">
        <ele>145.93</ele>
        <time>2026-05-02T09:03:22.283Z</time>
      </trkpt>
      <trkpt lat="43.80192" lon="4.23428">
        <ele>145.98</ele>
        <time>2026-05-02T09:03:27.360Z</time>
      </trkpt>
      <trkpt lat="43.8019" lon="4.23418">
        <ele>146.61</ele>
        <time>2026-05-02T09:03:32.612Z</time>
      </trkpt>
      <trkpt lat="43.80189" lon="4.23411">
        <ele>149.48</ele>
        <time>2026-05-02T09:03:38.393Z</time>
      </trkpt>
      <trkpt lat="43.80186" lon="4.23404">
        <ele>149.06</ele>
        <time>2026-05-02T09:03:43.802Z</time>
      </trkpt>
      <trkpt lat="43.80183" lon="4.234">
        <ele>148.21</ele>
        <time>2026-05-02T09:03:49.263Z</time>
      </trkpt>
      <trkpt lat="43.8018" lon="4.23394">
        <ele>146.59</ele>
        <time>2026-05-02T09:03:54.357Z</time>
      </trkpt>
      <trkpt lat="43.80177" lon="4.23387">
        <ele>145.93</ele>
        <time>2026-05-02T09:03:59.757Z</time>
      </trkpt>
      <trkpt lat="43.80172" lon="4.23382">
        <ele>146.04</ele>
        <time>2026-05-02T09:04:05.390Z</time>
      </trkpt>
      <trkpt lat="43.80168" lon="4.23372">
        <ele>147.88</ele>
        <time>2026-05-02T09:04:10.406Z</time>
      </trkpt>
      <trkpt lat="43.80163" lon="4.23363">
        <ele>147.45</ele>
        <time>2026-05-02T09:04:16.381Z</time>
      </trkpt>
      <trkpt lat="43.80159" lon="4.23356">
        <ele>147.22</ele>
        <time>2026-05-02T09:04:21.399Z</time>
      </trkpt>
      <trkpt lat="43.80156" lon="4.23351">
        <ele>147.28</ele>
        <time>2026-05-02T09:04:26.493Z</time>
      </trkpt>
      <trkpt lat="43.80154" lon="4.23346">
        <ele>147.43</ele>
        <time>2026-05-02T09:04:32.336Z</time>
      </trkpt>
      <trkpt lat="43.80152" lon="4.23342">
        <ele>148.03</ele>
        <time>2026-05-02T09:04:38.037Z</time>
      </trkpt>
      <trkpt lat="43.80146" lon="4.23336">
        <ele>147.5</ele>
        <time>2026-05-02T09:04:43.962Z</time>
      </trkpt>
      <trkpt lat="43.80142" lon="4.23328">
        <ele>146.74</ele>
        <time>2026-05-02T09:04:48.974Z</time>
      </trkpt>
      <trkpt lat="43.80137" lon="4.23319">
        <ele>147.04</ele>
        <time>2026-05-02T09:04:54.434Z</time>
      </trkpt>
      <trkpt lat="43.80132" lon="4.23312">
        <ele>147.18</ele>
        <time>2026-05-02T09:05:00.214Z</time>
      </trkpt>
      <trkpt lat="43.80127" lon="4.23308">
        <ele>146.84</ele>
        <time>2026-05-02T09:05:05.240Z</time>
      </trkpt>
      <trkpt lat="43.80122" lon="4.23304">
        <ele>146.94</ele>
        <time>2026-05-02T09:05:10.393Z</time>
      </trkpt>
      <trkpt lat="43.80115" lon="4.23296">
        <ele>146.33</ele>
        <time>2026-05-02T09:05:16.319Z</time>
      </trkpt>
      <trkpt lat="43.80112" lon="4.23289">
        <ele>146.27</ele>
        <time>2026-05-02T09:05:21.384Z</time>
      </trkpt>
      <trkpt lat="43.8011" lon="4.23282">
        <ele>145.78</ele>
        <time>2026-05-02T09:05:26.399Z</time>
      </trkpt>
      <trkpt lat="43.80105" lon="4.23275">
        <ele>145.83</ele>
        <time>2026-05-02T09:05:32.395Z</time>
      </trkpt>
      <trkpt lat="43.801" lon="4.23269">
        <ele>146.1</ele>
        <time>2026-05-02T09:05:38.143Z</time>
      </trkpt>
      <trkpt lat="43.80096" lon="4.23262">
        <ele>145.96</ele>
        <time>2026-05-02T09:05:43.366Z</time>
      </trkpt>
      <trkpt lat="43.80091" lon="4.23256">
        <ele>145.12</ele>
        <time>2026-05-02T09:05:48.380Z</time>
      </trkpt>
      <trkpt lat="43.80087" lon="4.23252">
        <ele>145.24</ele>
        <time>2026-05-02T09:05:53.729Z</time>
      </trkpt>
      <trkpt lat="43.80084" lon="4.23247">
        <ele>144.91</ele>
        <time>2026-05-02T09:05:59.278Z</time>
      </trkpt>
      <trkpt lat="43.80084" lon="4.23241">
        <ele>146.98</ele>
        <time>2026-05-02T09:06:04.386Z</time>
      </trkpt>
      <trkpt lat="43.80086" lon="4.23233">
        <ele>147.02</ele>
        <time>2026-05-02T09:06:09.402Z</time>
      </trkpt>
      <trkpt lat="43.80091" lon="4.23223">
        <ele>146.01</ele>
        <time>2026-05-02T09:06:14.991Z</time>
      </trkpt>
      <trkpt lat="43.80096" lon="4.2322">
        <ele>146.19</ele>
        <time>2026-05-02T09:06:20.129Z</time>
      </trkpt>
      <trkpt lat="43.80097" lon="4.23213">
        <ele>146.66</ele>
        <time>2026-05-02T09:06:25.408Z</time>
      </trkpt>
      <trkpt lat="43.80099" lon="4.23206">
        <ele>145.85</ele>
        <time>2026-05-02T09:06:31.090Z</time>
      </trkpt>
      <trkpt lat="43.80102" lon="4.23205">
        <ele>146.37</ele>
        <time>2026-05-02T09:06:36.398Z</time>
      </trkpt>
      <trkpt lat="43.80106" lon="4.23201">
        <ele>146.46</ele>
        <time>2026-05-02T09:06:42.421Z</time>
      </trkpt>
      <trkpt lat="43.80111" lon="4.23194">
        <ele>145.4</ele>
        <time>2026-05-02T09:06:48.309Z</time>
      </trkpt>
      <trkpt lat="43.80113" lon="4.23186">
        <ele>144.88</ele>
        <time>2026-05-02T09:06:53.483Z</time>
      </trkpt>
      <trkpt lat="43.80114" lon="4.23177">
        <ele>143.98</ele>
        <time>2026-05-02T09:06:58.722Z</time>
      </trkpt>
      <trkpt lat="43.80115" lon="4.23168">
        <ele>143.71</ele>
        <time>2026-05-02T09:07:04.084Z</time>
      </trkpt>
      <trkpt lat="43.80117" lon="4.23162">
        <ele>146.57</ele>
        <time>2026-05-02T09:07:09.605Z</time>
      </trkpt>
      <trkpt lat="43.80118" lon="4.23154">
        <ele>147.11</ele>
        <time>2026-05-02T09:07:15.004Z</time>
      </trkpt>
      <trkpt lat="43.80119" lon="4.23146">
        <ele>147.94</ele>
        <time>2026-05-02T09:07:20.222Z</time>
      </trkpt>
      <trkpt lat="43.80119" lon="4.23139">
        <ele>147.8</ele>
        <time>2026-05-02T09:07:25.746Z</time>
      </trkpt>
      <trkpt lat="43.8012" lon="4.23131">
        <ele>147.62</ele>
        <time>2026-05-02T09:07:31.125Z</time>
      </trkpt>
      <trkpt lat="43.80122" lon="4.23123">
        <ele>148.26</ele>
        <time>2026-05-02T09:07:36.368Z</time>
      </trkpt>
      <trkpt lat="43.80124" lon="4.23116">
        <ele>148.25</ele>
        <time>2026-05-02T09:07:41.384Z</time>
      </trkpt>
      <trkpt lat="43.80126" lon="4.23107">
        <ele>147.68</ele>
        <time>2026-05-02T09:07:47.423Z</time>
      </trkpt>
      <trkpt lat="43.80128" lon="4.23098">
        <ele>146.83</ele>
        <time>2026-05-02T09:07:53.186Z</time>
      </trkpt>
      <trkpt lat="43.80125" lon="4.23089">
        <ele>147.06</ele>
        <time>2026-05-02T09:07:58.456Z</time>
      </trkpt>
      <trkpt lat="43.80125" lon="4.23083">
        <ele>146.49</ele>
        <time>2026-05-02T09:08:03.582Z</time>
      </trkpt>
      <trkpt lat="43.80124" lon="4.23081">
        <ele>146.05</ele>
        <time>2026-05-02T09:08:10.113Z</time>
      </trkpt>
      <trkpt lat="43.80121" lon="4.23076">
        <ele>145.03</ele>
        <time>2026-05-02T09:08:16.262Z</time>
      </trkpt>
      <trkpt lat="43.80118" lon="4.23067">
        <ele>144.98</ele>
        <time>2026-05-02T09:08:21.365Z</time>
      </trkpt>
      <trkpt lat="43.80115" lon="4.2306">
        <ele>144.17</ele>
        <time>2026-05-02T09:08:26.414Z</time>
      </trkpt>
      <trkpt lat="43.80108" lon="4.23053">
        <ele>143.82</ele>
        <time>2026-05-02T09:08:32.366Z</time>
      </trkpt>
      <trkpt lat="43.80103" lon="4.23047">
        <ele>143.05</ele>
        <time>2026-05-02T09:08:37.404Z</time>
      </trkpt>
      <trkpt lat="43.801" lon="4.23038">
        <ele>142.56</ele>
        <time>2026-05-02T09:08:42.904Z</time>
      </trkpt>
      <trkpt lat="43.80097" lon="4.23033">
        <ele>142.18</ele>
        <time>2026-05-02T09:08:48.395Z</time>
      </trkpt>
      <trkpt lat="43.80093" lon="4.23028">
        <ele>141.81</ele>
        <time>2026-05-02T09:08:53.805Z</time>
      </trkpt>
      <trkpt lat="43.80087" lon="4.23022">
        <ele>141.13</ele>
        <time>2026-05-02T09:08:59.389Z</time>
      </trkpt>
      <trkpt lat="43.80081" lon="4.23018">
        <ele>140.98</ele>
        <time>2026-05-02T09:09:04.401Z</time>
      </trkpt>
      <trkpt lat="43.80076" lon="4.23008">
        <ele>141.53</ele>
        <time>2026-05-02T09:09:09.908Z</time>
      </trkpt>
      <trkpt lat="43.80072" lon="4.23004">
        <ele>141.72</ele>
        <time>2026-05-02T09:09:15.368Z</time>
      </trkpt>
      <trkpt lat="43.80067" lon="4.22998">
        <ele>143.62</ele>
        <time>2026-05-02T09:09:20.685Z</time>
      </trkpt>
      <trkpt lat="43.80064" lon="4.22991">
        <ele>144.04</ele>
        <time>2026-05-02T09:09:26.382Z</time>
      </trkpt>
      <trkpt lat="43.8006" lon="4.22984">
        <ele>142.54</ele>
        <time>2026-05-02T09:09:31.703Z</time>
      </trkpt>
      <trkpt lat="43.80055" lon="4.22979">
        <ele>143.42</ele>
        <time>2026-05-02T09:09:36.824Z</time>
      </trkpt>
      <trkpt lat="43.80048" lon="4.22977">
        <ele>144.76</ele>
        <time>2026-05-02T09:09:42.488Z</time>
      </trkpt>
      <trkpt lat="43.80045" lon="4.22971">
        <ele>145.57</ele>
        <time>2026-05-02T09:09:47.842Z</time>
      </trkpt>
      <trkpt lat="43.80045" lon="4.22963">
        <ele>147.16</ele>
        <time>2026-05-02T09:09:53.461Z</time>
      </trkpt>
      <trkpt lat="43.80046" lon="4.22959">
        <ele>145.88</ele>
        <time>2026-05-02T09:09:58.708Z</time>
      </trkpt>
      <trkpt lat="43.80047" lon="4.22953">
        <ele>146.22</ele>
        <time>2026-05-02T09:10:03.822Z</time>
      </trkpt>
      <trkpt lat="43.80048" lon="4.22947">
        <ele>149.5</ele>
        <time>2026-05-02T09:10:09.385Z</time>
      </trkpt>
      <trkpt lat="43.80049" lon="4.22939">
        <ele>149.07</ele>
        <time>2026-05-02T09:10:14.801Z</time>
      </trkpt>
      <trkpt lat="43.80048" lon="4.22933">
        <ele>150.22</ele>
        <time>2026-05-02T09:10:19.826Z</time>
      </trkpt>
      <trkpt lat="43.80046" lon="4.22925">
        <ele>147.79</ele>
        <time>2026-05-02T09:10:24.989Z</time>
      </trkpt>
      <trkpt lat="43.80042" lon="4.22919">
        <ele>145.28</ele>
        <time>2026-05-02T09:10:30.406Z</time>
      </trkpt>
      <trkpt lat="43.80039" lon="4.22912">
        <ele>147.62</ele>
        <time>2026-05-02T09:10:35.982Z</time>
      </trkpt>
      <trkpt lat="43.8004" lon="4.22906">
        <ele>150.82</ele>
        <time>2026-05-02T09:10:41.397Z</time>
      </trkpt>
      <trkpt lat="43.80042" lon="4.229">
        <ele>149.17</ele>
        <time>2026-05-02T09:10:46.745Z</time>
      </trkpt>
      <trkpt lat="43.80044" lon="4.22895">
        <ele>150.82</ele>
        <time>2026-05-02T09:10:52.364Z</time>
      </trkpt>
      <trkpt lat="43.80045" lon="4.2289">
        <ele>149.47</ele>
        <time>2026-05-02T09:10:57.403Z</time>
      </trkpt>
      <trkpt lat="43.80043" lon="4.22885">
        <ele>146.11</ele>
        <time>2026-05-02T09:11:02.845Z</time>
      </trkpt>
      <trkpt lat="43.80044" lon="4.22876">
        <ele>151.13</ele>
        <time>2026-05-02T09:11:07.882Z</time>
      </trkpt>
      <trkpt lat="43.80043" lon="4.22868">
        <ele>149.4</ele>
        <time>2026-05-02T09:11:13.367Z</time>
      </trkpt>
      <trkpt lat="43.80042" lon="4.22866">
        <ele>153.86</ele>
        <time>2026-05-02T09:11:21.420Z</time>
      </trkpt>
      <trkpt lat="43.80041" lon="4.2286">
        <ele>148.94</ele>
        <time>2026-05-02T09:11:26.867Z</time>
      </trkpt>
      <trkpt lat="43.80038" lon="4.22847">
        <ele>148.83</ele>
        <time>2026-05-02T09:11:32.051Z</time>
      </trkpt>
      <trkpt lat="43.80035" lon="4.22837">
        <ele>151.46</ele>
        <time>2026-05-02T09:11:37.321Z</time>
      </trkpt>
      <trkpt lat="43.80031" lon="4.22833">
        <ele>150.01</ele>
        <time>2026-05-02T09:11:43.130Z</time>
      </trkpt>
      <trkpt lat="43.80029" lon="4.22829">
        <ele>150.82</ele>
        <time>2026-05-02T09:11:48.893Z</time>
      </trkpt>
      <trkpt lat="43.80026" lon="4.22823">
        <ele>152.88</ele>
        <time>2026-05-02T09:11:54.290Z</time>
      </trkpt>
      <trkpt lat="43.80023" lon="4.22822">
        <ele>151.7</ele>
        <time>2026-05-02T09:11:59.409Z</time>
      </trkpt>
      <trkpt lat="43.80022" lon="4.22823">
        <ele>150.06</ele>
        <time>2026-05-02T09:12:05.274Z</time>
      </trkpt>
      <trkpt lat="43.80021" lon="4.22823">
        <ele>148.77</ele>
        <time>2026-05-02T09:12:11.360Z</time>
      </trkpt>
      <trkpt lat="43.8002" lon="4.22822">
        <ele>148.92</ele>
        <time>2026-05-02T09:12:18.403Z</time>
      </trkpt>
      <trkpt lat="43.80019" lon="4.22823">
        <ele>148.5</ele>
        <time>2026-05-02T09:12:28.433Z</time>
      </trkpt>
      <trkpt lat="43.80019" lon="4.22824">
        <ele>147.89</ele>
        <time>2026-05-02T09:12:44.439Z</time>
      </trkpt>
      <trkpt lat="43.8002" lon="4.22823">
        <ele>148.47</ele>
        <time>2026-05-02T09:12:49.448Z</time>
      </trkpt>
      <trkpt lat="43.80026" lon="4.22814">
        <ele>151.34</ele>
        <time>2026-05-02T09:12:54.929Z</time>
      </trkpt>
      <trkpt lat="43.80032" lon="4.22802">
        <ele>150.62</ele>
        <time>2026-05-02T09:12:59.951Z</time>
      </trkpt>
      <trkpt lat="43.80036" lon="4.22793">
        <ele>151.14</ele>
        <time>2026-05-02T09:13:05.121Z</time>
      </trkpt>
      <trkpt lat="43.80039" lon="4.22787">
        <ele>151.14</ele>
        <time>2026-05-02T09:13:10.395Z</time>
      </trkpt>
      <trkpt lat="43.80042" lon="4.22781">
        <ele>151.22</ele>
        <time>2026-05-02T09:13:15.465Z</time>
      </trkpt>
      <trkpt lat="43.80046" lon="4.22775">
        <ele>152.26</ele>
        <time>2026-05-02T09:13:21.212Z</time>
      </trkpt>
      <trkpt lat="43.80045" lon="4.22766">
        <ele>152.14</ele>
        <time>2026-05-02T09:13:26.387Z</time>
      </trkpt>
      <trkpt lat="43.80041" lon="4.22759">
        <ele>152.34</ele>
        <time>2026-05-02T09:13:31.829Z</time>
      </trkpt>
      <trkpt lat="43.8004" lon="4.22753">
        <ele>152.22</ele>
        <time>2026-05-02T09:13:36.970Z</time>
      </trkpt>
      <trkpt lat="43.80038" lon="4.22744">
        <ele>153.5</ele>
        <time>2026-05-02T09:13:42.785Z</time>
      </trkpt>
      <trkpt lat="43.80036" lon="4.22736">
        <ele>154.2</ele>
        <time>2026-05-02T09:13:48.357Z</time>
      </trkpt>
      <trkpt lat="43.80032" lon="4.22728">
        <ele>154.19</ele>
        <time>2026-05-02T09:13:53.829Z</time>
      </trkpt>
      <trkpt lat="43.80028" lon="4.22721">
        <ele>153.27</ele>
        <time>2026-05-02T09:13:59.372Z</time>
      </trkpt>
      <trkpt lat="43.80025" lon="4.22716">
        <ele>154.65</ele>
        <time>2026-05-02T09:14:04.632Z</time>
      </trkpt>
      <trkpt lat="43.80021" lon="4.22712">
        <ele>155.66</ele>
        <time>2026-05-02T09:14:09.830Z</time>
      </trkpt>
      <trkpt lat="43.80017" lon="4.22707">
        <ele>156.32</ele>
        <time>2026-05-02T09:14:15.187Z</time>
      </trkpt>
      <trkpt lat="43.80016" lon="4.22697">
        <ele>155.98</ele>
        <time>2026-05-02T09:14:20.369Z</time>
      </trkpt>
      <trkpt lat="43.80017" lon="4.22689">
        <ele>156.75</ele>
        <time>2026-05-02T09:14:26.267Z</time>
      </trkpt>
      <trkpt lat="43.80014" lon="4.22682">
        <ele>157.25</ele>
        <time>2026-05-02T09:14:31.392Z</time>
      </trkpt>
      <trkpt lat="43.80011" lon="4.22677">
        <ele>156.49</ele>
        <time>2026-05-02T09:14:36.588Z</time>
      </trkpt>
      <trkpt lat="43.80009" lon="4.2267">
        <ele>158.1</ele>
        <time>2026-05-02T09:14:42.273Z</time>
      </trkpt>
      <trkpt lat="43.80008" lon="4.22664">
        <ele>158.3</ele>
        <time>2026-05-02T09:14:47.365Z</time>
      </trkpt>
      <trkpt lat="43.80005" lon="4.22658">
        <ele>159.24</ele>
        <time>2026-05-02T09:14:53.212Z</time>
      </trkpt>
      <trkpt lat="43.80001" lon="4.22652">
        <ele>158.8</ele>
        <time>2026-05-02T09:14:58.356Z</time>
      </trkpt>
      <trkpt lat="43.79997" lon="4.22646">
        <ele>159.38</ele>
        <time>2026-05-02T09:15:03.908Z</time>
      </trkpt>
      <trkpt lat="43.79994" lon="4.22641">
        <ele>159.44</ele>
        <time>2026-05-02T09:15:09.452Z</time>
      </trkpt>
      <trkpt lat="43.79992" lon="4.22635">
        <ele>160.77</ele>
        <time>2026-05-02T09:15:14.629Z</time>
      </trkpt>
      <trkpt lat="43.79989" lon="4.22631">
        <ele>160.86</ele>
        <time>2026-05-02T09:15:19.984Z</time>
      </trkpt>
      <trkpt lat="43.79987" lon="4.22625">
        <ele>161.3</ele>
        <time>2026-05-02T09:15:24.992Z</time>
      </trkpt>
      <trkpt lat="43.79985" lon="4.22617">
        <ele>159.93</ele>
        <time>2026-05-02T09:15:30.248Z</time>
      </trkpt>
      <trkpt lat="43.79985" lon="4.22609">
        <ele>160.1</ele>
        <time>2026-05-02T09:15:35.350Z</time>
      </trkpt>
      <trkpt lat="43.79983" lon="4.22601">
        <ele>161.19</ele>
        <time>2026-05-02T09:15:41.147Z</time>
      </trkpt>
      <trkpt lat="43.79981" lon="4.22592">
        <ele>159.99</ele>
        <time>2026-05-02T09:15:47.109Z</time>
      </trkpt>
      <trkpt lat="43.7998" lon="4.22584">
        <ele>161.18</ele>
        <time>2026-05-02T09:15:52.289Z</time>
      </trkpt>
      <trkpt lat="43.79978" lon="4.22577">
        <ele>160.52</ele>
        <time>2026-05-02T09:15:57.767Z</time>
      </trkpt>
      <trkpt lat="43.79976" lon="4.2257">
        <ele>159.93</ele>
        <time>2026-05-02T09:16:02.968Z</time>
      </trkpt>
      <trkpt lat="43.79973" lon="4.22563">
        <ele>160.98</ele>
        <time>2026-05-02T09:16:08.355Z</time>
      </trkpt>
      <trkpt lat="43.79969" lon="4.22557">
        <ele>160.89</ele>
        <time>2026-05-02T09:16:13.690Z</time>
      </trkpt>
      <trkpt lat="43.79966" lon="4.22552">
        <ele>159.66</ele>
        <time>2026-05-02T09:16:18.849Z</time>
      </trkpt>
      <trkpt lat="43.79965" lon="4.22543">
        <ele>161.27</ele>
        <time>2026-05-02T09:16:24.088Z</time>
      </trkpt>
      <trkpt lat="43.79963" lon="4.22535">
        <ele>159.75</ele>
        <time>2026-05-02T09:16:29.376Z</time>
      </trkpt>
      <trkpt lat="43.79961" lon="4.22528">
        <ele>160.91</ele>
        <time>2026-05-02T09:16:34.390Z</time>
      </trkpt>
      <trkpt lat="43.79957" lon="4.22522">
        <ele>161.54</ele>
        <time>2026-05-02T09:16:39.683Z</time>
      </trkpt>
      <trkpt lat="43.79953" lon="4.22518">
        <ele>161.46</ele>
        <time>2026-05-02T09:16:45.382Z</time>
      </trkpt>
      <trkpt lat="43.79951" lon="4.22515">
        <ele>161.24</ele>
        <time>2026-05-02T09:16:50.390Z</time>
      </trkpt>
      <trkpt lat="43.79949" lon="4.22512">
        <ele>162.58</ele>
        <time>2026-05-02T09:16:55.913Z</time>
      </trkpt>
      <trkpt lat="43.79946" lon="4.22507">
        <ele>162.36</ele>
        <time>2026-05-02T09:17:01.026Z</time>
      </trkpt>
      <trkpt lat="43.79943" lon="4.225">
        <ele>163.1</ele>
        <time>2026-05-02T09:17:06.403Z</time>
      </trkpt>
      <trkpt lat="43.79945" lon="4.22492">
        <ele>162.67</ele>
        <time>2026-05-02T09:17:11.830Z</time>
      </trkpt>
      <trkpt lat="43.79946" lon="4.22484">
        <ele>161.5</ele>
        <time>2026-05-02T09:17:17.393Z</time>
      </trkpt>
      <trkpt lat="43.79944" lon="4.22477">
        <ele>162.22</ele>
        <time>2026-05-02T09:17:23.247Z</time>
      </trkpt>
      <trkpt lat="43.7994" lon="4.22472">
        <ele>162.38</ele>
        <time>2026-05-02T09:17:28.289Z</time>
      </trkpt>
      <trkpt lat="43.79934" lon="4.22472">
        <ele>163.39</ele>
        <time>2026-05-02T09:17:33.926Z</time>
      </trkpt>
      <trkpt lat="43.79931" lon="4.22468">
        <ele>163.93</ele>
        <time>2026-05-02T09:17:39.128Z</time>
      </trkpt>
      <trkpt lat="43.79926" lon="4.22465">
        <ele>165.25</ele>
        <time>2026-05-02T09:17:45.406Z</time>
      </trkpt>
      <trkpt lat="43.79919" lon="4.22462">
        <ele>165.41</ele>
        <time>2026-05-02T09:17:50.768Z</time>
      </trkpt>
      <trkpt lat="43.79913" lon="4.22458">
        <ele>166.08</ele>
        <time>2026-05-02T09:17:56.308Z</time>
      </trkpt>
      <trkpt lat="43.7991" lon="4.22452">
        <ele>165.42</ele>
        <time>2026-05-02T09:18:02.423Z</time>
      </trkpt>
      <trkpt lat="43.79908" lon="4.22445">
        <ele>166.81</ele>
        <time>2026-05-02T09:18:07.484Z</time>
      </trkpt>
      <trkpt lat="43.79906" lon="4.22435">
        <ele>167.52</ele>
        <time>2026-05-02T09:18:13.213Z</time>
      </trkpt>
      <trkpt lat="43.79902" lon="4.22429">
        <ele>165.84</ele>
        <time>2026-05-02T09:18:18.788Z</time>
      </trkpt>
      <trkpt lat="43.79902" lon="4.22421">
        <ele>166.52</ele>
        <time>2026-05-02T09:18:24.211Z</time>
      </trkpt>
      <trkpt lat="43.79901" lon="4.22413">
        <ele>167.02</ele>
        <time>2026-05-02T09:18:29.324Z</time>
      </trkpt>
      <trkpt lat="43.79898" lon="4.22406">
        <ele>168.49</ele>
        <time>2026-05-02T09:18:34.434Z</time>
      </trkpt>
      <trkpt lat="43.79897" lon="4.22398">
        <ele>169.79</ele>
        <time>2026-05-02T09:18:39.675Z</time>
      </trkpt>
      <trkpt lat="43.79896" lon="4.22389">
        <ele>169.93</ele>
        <time>2026-05-02T09:18:45.233Z</time>
      </trkpt>
      <trkpt lat="43.79895" lon="4.2238">
        <ele>168.8</ele>
        <time>2026-05-02T09:18:50.674Z</time>
      </trkpt>
      <trkpt lat="43.79895" lon="4.22372">
        <ele>169.58</ele>
        <time>2026-05-02T09:18:55.774Z</time>
      </trkpt>
      <trkpt lat="43.79895" lon="4.22363">
        <ele>169.22</ele>
        <time>2026-05-02T09:19:01.176Z</time>
      </trkpt>
      <trkpt lat="43.79895" lon="4.22356">
        <ele>170.05</ele>
        <time>2026-05-02T09:19:06.734Z</time>
      </trkpt>
      <trkpt lat="43.79896" lon="4.2235">
        <ele>169.87</ele>
        <time>2026-05-02T09:19:12.096Z</time>
      </trkpt>
      <trkpt lat="43.79896" lon="4.22348">
        <ele>169.18</ele>
        <time>2026-05-02T09:19:17.437Z</time>
      </trkpt>
      <trkpt lat="43.79895" lon="4.22349">
        <ele>169.1</ele>
        <time>2026-05-02T09:19:23.211Z</time>
      </trkpt>
      <trkpt lat="43.79895" lon="4.22348">
        <ele>168.47</ele>
        <time>2026-05-02T09:20:14.417Z</time>
      </trkpt>
      <trkpt lat="43.79894" lon="4.22347">
        <ele>168.68</ele>
        <time>2026-05-02T09:20:26.354Z</time>
      </trkpt>
      <trkpt lat="43.79892" lon="4.22347">
        <ele>168.29</ele>
        <time>2026-05-02T09:20:32.344Z</time>
      </trkpt>
      <trkpt lat="43.7989" lon="4.22346">
        <ele>168.66</ele>
        <time>2026-05-02T09:20:37.358Z</time>
      </trkpt>
      <trkpt lat="43.79885" lon="4.22338">
        <ele>169.66</ele>
        <time>2026-05-02T09:20:42.431Z</time>
      </trkpt>
      <trkpt lat="43.7988" lon="4.22323">
        <ele>168.45</ele>
        <time>2026-05-02T09:20:47.676Z</time>
      </trkpt>
      <trkpt lat="43.79877" lon="4.22314">
        <ele>167.95</ele>
        <time>2026-05-02T09:20:53.365Z</time>
      </trkpt>
      <trkpt lat="43.79874" lon="4.22306">
        <ele>166.42</ele>
        <time>2026-05-02T09:20:59.051Z</time>
      </trkpt>
      <trkpt lat="43.79869" lon="4.22301">
        <ele>166.33</ele>
        <time>2026-05-02T09:21:04.074Z</time>
      </trkpt>
      <trkpt lat="43.79863" lon="4.22297">
        <ele>166.94</ele>
        <time>2026-05-02T09:21:09.371Z</time>
      </trkpt>
      <trkpt lat="43.79859" lon="4.22291">
        <ele>166.65</ele>
        <time>2026-05-02T09:21:14.736Z</time>
      </trkpt>
      <trkpt lat="43.79854" lon="4.22288">
        <ele>166.18</ele>
        <time>2026-05-02T09:21:19.814Z</time>
      </trkpt>
      <trkpt lat="43.79848" lon="4.22288">
        <ele>165.88</ele>
        <time>2026-05-02T09:21:25.254Z</time>
      </trkpt>
      <trkpt lat="43.79841" lon="4.22293">
        <ele>164.5</ele>
        <time>2026-05-02T09:21:30.392Z</time>
      </trkpt>
      <trkpt lat="43.79837" lon="4.22298">
        <ele>163.4</ele>
        <time>2026-05-02T09:21:35.407Z</time>
      </trkpt>
      <trkpt lat="43.79832" lon="4.22298">
        <ele>163.3</ele>
        <time>2026-05-02T09:21:40.649Z</time>
      </trkpt>
      <trkpt lat="43.79827" lon="4.22302">
        <ele>164.79</ele>
        <time>2026-05-02T09:21:46.051Z</time>
      </trkpt>
      <trkpt lat="43.79821" lon="4.223">
        <ele>163.35</ele>
        <time>2026-05-02T09:21:51.305Z</time>
      </trkpt>
      <trkpt lat="43.79817" lon="4.22299">
        <ele>160.95</ele>
        <time>2026-05-02T09:21:56.366Z</time>
      </trkpt>
      <trkpt lat="43.79811" lon="4.22298">
        <ele>161.18</ele>
        <time>2026-05-02T09:22:02.077Z</time>
      </trkpt>
      <trkpt lat="43.79804" lon="4.22298">
        <ele>160.82</ele>
        <time>2026-05-02T09:22:07.313Z</time>
      </trkpt>
      <trkpt lat="43.79798" lon="4.22299">
        <ele>158.71</ele>
        <time>2026-05-02T09:22:12.434Z</time>
      </trkpt>
      <trkpt lat="43.79792" lon="4.22298">
        <ele>159.04</ele>
        <time>2026-05-02T09:22:18.120Z</time>
      </trkpt>
      <trkpt lat="43.79787" lon="4.223">
        <ele>163.5</ele>
        <time>2026-05-02T09:22:23.426Z</time>
      </trkpt>
      <trkpt lat="43.79779" lon="4.22298">
        <ele>161.17</ele>
        <time>2026-05-02T09:22:29.402Z</time>
      </trkpt>
      <trkpt lat="43.79773" lon="4.22295">
        <ele>161.36</ele>
        <time>2026-05-02T09:22:34.579Z</time>
      </trkpt>
      <trkpt lat="43.79767" lon="4.22295">
        <ele>162.13</ele>
        <time>2026-05-02T09:22:40.393Z</time>
      </trkpt>
      <trkpt lat="43.79762" lon="4.22298">
        <ele>162.38</ele>
        <time>2026-05-02T09:22:45.408Z</time>
      </trkpt>
      <trkpt lat="43.79755" lon="4.223">
        <ele>164.79</ele>
        <time>2026-05-02T09:22:51.060Z</time>
      </trkpt>
      <trkpt lat="43.7975" lon="4.223">
        <ele>168.17</ele>
        <time>2026-05-02T09:22:56.401Z</time>
      </trkpt>
      <trkpt lat="43.79743" lon="4.22301">
        <ele>167.96</ele>
        <time>2026-05-02T09:23:02.111Z</time>
      </trkpt>
      <trkpt lat="43.79738" lon="4.22302">
        <ele>168.31</ele>
        <time>2026-05-02T09:23:07.334Z</time>
      </trkpt>
      <trkpt lat="43.79732" lon="4.223">
        <ele>169.12</ele>
        <time>2026-05-02T09:23:12.408Z</time>
      </trkpt>
      <trkpt lat="43.79727" lon="4.223">
        <ele>169.86</ele>
        <time>2026-05-02T09:23:17.433Z</time>
      </trkpt>
      <trkpt lat="43.79721" lon="4.22301">
        <ele>169.14</ele>
        <time>2026-05-02T09:23:22.440Z</time>
      </trkpt>
      <trkpt lat="43.79714" lon="4.223">
        <ele>168.72</ele>
        <time>2026-05-02T09:23:27.454Z</time>
      </trkpt>
      <trkpt lat="43.79707" lon="4.223">
        <ele>168.15</ele>
        <time>2026-05-02T09:23:33.276Z</time>
      </trkpt>
      <trkpt lat="43.797" lon="4.22301">
        <ele>166.15</ele>
        <time>2026-05-02T09:23:38.447Z</time>
      </trkpt>
      <trkpt lat="43.79692" lon="4.22303">
        <ele>166.18</ele>
        <time>2026-05-02T09:23:44.416Z</time>
      </trkpt>
      <trkpt lat="43.79686" lon="4.22304">
        <ele>166.31</ele>
        <time>2026-05-02T09:23:50.180Z</time>
      </trkpt>
      <trkpt lat="43.79681" lon="4.22306">
        <ele>165.65</ele>
        <time>2026-05-02T09:23:55.414Z</time>
      </trkpt>
      <trkpt lat="43.79674" lon="4.22305">
        <ele>165.33</ele>
        <time>2026-05-02T09:24:01.473Z</time>
      </trkpt>
      <trkpt lat="43.79668" lon="4.22303">
        <ele>163.28</ele>
        <time>2026-05-02T09:24:07.201Z</time>
      </trkpt>
      <trkpt lat="43.79661" lon="4.22302">
        <ele>163.11</ele>
        <time>2026-05-02T09:24:12.853Z</time>
      </trkpt>
      <trkpt lat="43.79655" lon="4.22305">
        <ele>163.05</ele>
        <time>2026-05-02T09:24:18.396Z</time>
      </trkpt>
      <trkpt lat="43.79647" lon="4.22311">
        <ele>162.53</ele>
        <time>2026-05-02T09:24:23.856Z</time>
      </trkpt>
      <trkpt lat="43.7964" lon="4.22315">
        <ele>163.29</ele>
        <time>2026-05-02T09:24:29.413Z</time>
      </trkpt>
      <trkpt lat="43.79634" lon="4.2232">
        <ele>162.35</ele>
        <time>2026-05-02T09:24:34.921Z</time>
      </trkpt>
      <trkpt lat="43.79629" lon="4.22323">
        <ele>161.8</ele>
        <time>2026-05-02T09:24:39.996Z</time>
      </trkpt>
      <trkpt lat="43.79622" lon="4.22326">
        <ele>161.57</ele>
        <time>2026-05-02T09:24:45.296Z</time>
      </trkpt>
      <trkpt lat="43.79617" lon="4.22329">
        <ele>160.47</ele>
        <time>2026-05-02T09:24:50.371Z</time>
      </trkpt>
      <trkpt lat="43.79612" lon="4.22334">
        <ele>159.92</ele>
        <time>2026-05-02T09:24:55.420Z</time>
      </trkpt>
      <trkpt lat="43.79607" lon="4.22341">
        <ele>159.28</ele>
        <time>2026-05-02T09:25:00.860Z</time>
      </trkpt>
      <trkpt lat="43.79601" lon="4.22346">
        <ele>159.02</ele>
        <time>2026-05-02T09:25:06.301Z</time>
      </trkpt>
      <trkpt lat="43.79594" lon="4.22352">
        <ele>159.38</ele>
        <time>2026-05-02T09:25:11.814Z</time>
      </trkpt>
      <trkpt lat="43.7959" lon="4.22358">
        <ele>159.4</ele>
        <time>2026-05-02T09:25:17.222Z</time>
      </trkpt>
      <trkpt lat="43.79584" lon="4.22363">
        <ele>159.45</ele>
        <time>2026-05-02T09:25:22.717Z</time>
      </trkpt>
      <trkpt lat="43.79579" lon="4.2237">
        <ele>158.87</ele>
        <time>2026-05-02T09:25:28.096Z</time>
      </trkpt>
      <trkpt lat="43.79578" lon="4.2238">
        <ele>158.92</ele>
        <time>2026-05-02T09:25:33.483Z</time>
      </trkpt>
      <trkpt lat="43.7958" lon="4.22388">
        <ele>160.26</ele>
        <time>2026-05-02T09:25:38.817Z</time>
      </trkpt>
      <trkpt lat="43.79585" lon="4.22395">
        <ele>159.51</ele>
        <time>2026-05-02T09:25:43.916Z</time>
      </trkpt>
      <trkpt lat="43.79591" lon="4.224">
        <ele>159.38</ele>
        <time>2026-05-02T09:25:49.457Z</time>
      </trkpt>
      <trkpt lat="43.79598" lon="4.22406">
        <ele>158.71</ele>
        <time>2026-05-02T09:25:55.139Z</time>
      </trkpt>
      <trkpt lat="43.79599" lon="4.22416">
        <ele>158.06</ele>
        <time>2026-05-02T09:26:00.838Z</time>
      </trkpt>
      <trkpt lat="43.79597" lon="4.22426">
        <ele>158.23</ele>
        <time>2026-05-02T09:26:06.441Z</time>
      </trkpt>
      <trkpt lat="43.79594" lon="4.22436">
        <ele>157.73</ele>
        <time>2026-05-02T09:26:11.938Z</time>
      </trkpt>
      <trkpt lat="43.79594" lon="4.22445">
        <ele>157.53</ele>
        <time>2026-05-02T09:26:17.447Z</time>
      </trkpt>
      <trkpt lat="43.79597" lon="4.22452">
        <ele>156.21</ele>
        <time>2026-05-02T09:26:22.463Z</time>
      </trkpt>
      <trkpt lat="43.79596" lon="4.22451">
        <ele>154.86</ele>
        <time>2026-05-02T09:26:28.439Z</time>
      </trkpt>
      <trkpt lat="43.79596" lon="4.22452">
        <ele>155.29</ele>
        <time>2026-05-02T09:26:36.442Z</time>
      </trkpt>
      <trkpt lat="43.79596" lon="4.22451">
        <ele>154.28</ele>
        <time>2026-05-02T09:26:46.365Z</time>
      </trkpt>
      <trkpt lat="43.79597" lon="4.22451">
        <ele>155.17</ele>
        <time>2026-05-02T09:27:11.442Z</time>
      </trkpt>
      <trkpt lat="43.79597" lon="4.22452">
        <ele>154.96</ele>
        <time>2026-05-02T09:27:27.416Z</time>
      </trkpt>
      <trkpt lat="43.79598" lon="4.22453">
        <ele>154.82</ele>
        <time>2026-05-02T09:27:38.441Z</time>
      </trkpt>
      <trkpt lat="43.79596" lon="4.22454">
        <ele>154.74</ele>
        <time>2026-05-02T09:27:46.456Z</time>
      </trkpt>
      <trkpt lat="43.79595" lon="4.22457">
        <ele>155.36</ele>
        <time>2026-05-02T09:27:51.460Z</time>
      </trkpt>
      <trkpt lat="43.79596" lon="4.22459">
        <ele>156.78</ele>
        <time>2026-05-02T09:27:57.438Z</time>
      </trkpt>
      <trkpt lat="43.79595" lon="4.22462">
        <ele>154.85</ele>
        <time>2026-05-02T09:28:03.095Z</time>
      </trkpt>
      <trkpt lat="43.7959" lon="4.22472">
        <ele>155.75</ele>
        <time>2026-05-02T09:28:08.936Z</time>
      </trkpt>
      <trkpt lat="43.79589" lon="4.2248">
        <ele>157.39</ele>
        <time>2026-05-02T09:28:14.403Z</time>
      </trkpt>
      <trkpt lat="43.79588" lon="4.22487">
        <ele>157.03</ele>
        <time>2026-05-02T09:28:19.418Z</time>
      </trkpt>
      <trkpt lat="43.79589" lon="4.22497">
        <ele>157.68</ele>
        <time>2026-05-02T09:28:25.394Z</time>
      </trkpt>
      <trkpt lat="43.79589" lon="4.22505">
        <ele>157.61</ele>
        <time>2026-05-02T09:28:31.176Z</time>
      </trkpt>
      <trkpt lat="43.79588" lon="4.22515">
        <ele>158.15</ele>
        <time>2026-05-02T09:28:37.339Z</time>
      </trkpt>
      <trkpt lat="43.79588" lon="4.22523">
        <ele>156.36</ele>
        <time>2026-05-02T09:28:42.467Z</time>
      </trkpt>
      <trkpt lat="43.79588" lon="4.22533">
        <ele>156.51</ele>
        <time>2026-05-02T09:28:47.959Z</time>
      </trkpt>
      <trkpt lat="43.79588" lon="4.2254">
        <ele>155.66</ele>
        <time>2026-05-02T09:28:53.054Z</time>
      </trkpt>
      <trkpt lat="43.79587" lon="4.22547">
        <ele>156.23</ele>
        <time>2026-05-02T09:28:58.397Z</time>
      </trkpt>
      <trkpt lat="43.79586" lon="4.22553">
        <ele>156.82</ele>
        <time>2026-05-02T09:29:03.716Z</time>
      </trkpt>
      <trkpt lat="43.79585" lon="4.22559">
        <ele>157.33</ele>
        <time>2026-05-02T09:29:08.954Z</time>
      </trkpt>
      <trkpt lat="43.79585" lon="4.22567">
        <ele>159.38</ele>
        <time>2026-05-02T09:29:14.316Z</time>
      </trkpt>
      <trkpt lat="43.79585" lon="4.22574">
        <ele>158.28</ele>
        <time>2026-05-02T09:29:20.336Z</time>
      </trkpt>
      <trkpt lat="43.79584" lon="4.2258">
        <ele>157.16</ele>
        <time>2026-05-02T09:29:25.366Z</time>
      </trkpt>
      <trkpt lat="43.79581" lon="4.22585">
        <ele>157.16</ele>
        <time>2026-05-02T09:29:30.394Z</time>
      </trkpt>
      <trkpt lat="43.79575" lon="4.22588">
        <ele>157.47</ele>
        <time>2026-05-02T09:29:35.596Z</time>
      </trkpt>
      <trkpt lat="43.7957" lon="4.22584">
        <ele>157.19</ele>
        <time>2026-05-02T09:29:41.339Z</time>
      </trkpt>
      <trkpt lat="43.7957" lon="4.2258">
        <ele>156.08</ele>
        <time>2026-05-02T09:29:46.389Z</time>
      </trkpt>
      <trkpt lat="43.7957" lon="4.22582">
        <ele>154.55</ele>
        <time>2026-05-02T09:30:04.423Z</time>
      </trkpt>
      <trkpt lat="43.79569" lon="4.22583">
        <ele>154.64</ele>
        <time>2026-05-02T09:30:12.426Z</time>
      </trkpt>
      <trkpt lat="43.79568" lon="4.22583">
        <ele>154.27</ele>
        <time>2026-05-02T09:30:18.119Z</time>
      </trkpt>
      <trkpt lat="43.79567" lon="4.22584">
        <ele>157.25</ele>
        <time>2026-05-02T09:30:23.418Z</time>
      </trkpt>
      <trkpt lat="43.79564" lon="4.22584">
        <ele>157.7</ele>
        <time>2026-05-02T09:30:29.155Z</time>
      </trkpt>
      <trkpt lat="43.79558" lon="4.22585">
        <ele>157.18</ele>
        <time>2026-05-02T09:30:34.376Z</time>
      </trkpt>
      <trkpt lat="43.79547" lon="4.22589">
        <ele>155.9</ele>
        <time>2026-05-02T09:30:39.979Z</time>
      </trkpt>
      <trkpt lat="43.7954" lon="4.22594">
        <ele>155.08</ele>
        <time>2026-05-02T09:30:44.993Z</time>
      </trkpt>
      <trkpt lat="43.79534" lon="4.22598">
        <ele>155.42</ele>
        <time>2026-05-02T09:30:50.443Z</time>
      </trkpt>
      <trkpt lat="43.79528" lon="4.22601">
        <ele>154.83</ele>
        <time>2026-05-02T09:30:55.477Z</time>
      </trkpt>
      <trkpt lat="43.79522" lon="4.22603">
        <ele>153.72</ele>
        <time>2026-05-02T09:31:01.038Z</time>
      </trkpt>
      <trkpt lat="43.79517" lon="4.22607">
        <ele>153.54</ele>
        <time>2026-05-02T09:31:06.257Z</time>
      </trkpt>
      <trkpt lat="43.79512" lon="4.2261">
        <ele>152.76</ele>
        <time>2026-05-02T09:31:11.796Z</time>
      </trkpt>
      <trkpt lat="43.79507" lon="4.22612">
        <ele>153.18</ele>
        <time>2026-05-02T09:31:17.380Z</time>
      </trkpt>
      <trkpt lat="43.79501" lon="4.22616">
        <ele>152.58</ele>
        <time>2026-05-02T09:31:22.974Z</time>
      </trkpt>
      <trkpt lat="43.79501" lon="4.22625">
        <ele>152.72</ele>
        <time>2026-05-02T09:31:28.098Z</time>
      </trkpt>
      <trkpt lat="43.79502" lon="4.22634">
        <ele>154.41</ele>
        <time>2026-05-02T09:31:33.419Z</time>
      </trkpt>
      <trkpt lat="43.79506" lon="4.22641">
        <ele>154.46</ele>
        <time>2026-05-02T09:31:38.436Z</time>
      </trkpt>
      <trkpt lat="43.7951" lon="4.22646">
        <ele>153.24</ele>
        <time>2026-05-02T09:31:43.451Z</time>
      </trkpt>
      <trkpt lat="43.79512" lon="4.22653">
        <ele>152.79</ele>
        <time>2026-05-02T09:31:48.647Z</time>
      </trkpt>
      <trkpt lat="43.79516" lon="4.22659">
        <ele>153.2</ele>
        <time>2026-05-02T09:31:54.153Z</time>
      </trkpt>
      <trkpt lat="43.79519" lon="4.22665">
        <ele>152.63</ele>
        <time>2026-05-02T09:31:59.907Z</time>
      </trkpt>
      <trkpt lat="43.79521" lon="4.22673">
        <ele>152.29</ele>
        <time>2026-05-02T09:32:04.992Z</time>
      </trkpt>
      <trkpt lat="43.79521" lon="4.22684">
        <ele>151.89</ele>
        <time>2026-05-02T09:32:10.467Z</time>
      </trkpt>
      <trkpt lat="43.79515" lon="4.22686">
        <ele>151.56</ele>
        <time>2026-05-02T09:32:15.947Z</time>
      </trkpt>
      <trkpt lat="43.79511" lon="4.22693">
        <ele>150.91</ele>
        <time>2026-05-02T09:32:20.991Z</time>
      </trkpt>
      <trkpt lat="43.79506" lon="4.22694">
        <ele>150.57</ele>
        <time>2026-05-02T09:32:26.351Z</time>
      </trkpt>
      <trkpt lat="43.79501" lon="4.22696">
        <ele>151.47</ele>
        <time>2026-05-02T09:32:32.391Z</time>
      </trkpt>
      <trkpt lat="43.79498" lon="4.22701">
        <ele>150.21</ele>
        <time>2026-05-02T09:32:37.485Z</time>
      </trkpt>
      <trkpt lat="43.79498" lon="4.22708">
        <ele>149</ele>
        <time>2026-05-02T09:32:42.511Z</time>
      </trkpt>
      <trkpt lat="43.79498" lon="4.22712">
        <ele>149.97</ele>
        <time>2026-05-02T09:32:48.111Z</time>
      </trkpt>
      <trkpt lat="43.79503" lon="4.22719">
        <ele>149.83</ele>
        <time>2026-05-02T09:32:53.472Z</time>
      </trkpt>
      <trkpt lat="43.79508" lon="4.22725">
        <ele>149.84</ele>
        <time>2026-05-02T09:32:58.873Z</time>
      </trkpt>
      <trkpt lat="43.79506" lon="4.22732">
        <ele>149.91</ele>
        <time>2026-05-02T09:33:03.951Z</time>
      </trkpt>
      <trkpt lat="43.79506" lon="4.22738">
        <ele>149.56</ele>
        <time>2026-05-02T09:33:08.992Z</time>
      </trkpt>
      <trkpt lat="43.79503" lon="4.22741">
        <ele>149.78</ele>
        <time>2026-05-02T09:33:14.081Z</time>
      </trkpt>
      <trkpt lat="43.79499" lon="4.22744">
        <ele>148.61</ele>
        <time>2026-05-02T09:33:19.465Z</time>
      </trkpt>
      <trkpt lat="43.79497" lon="4.22749">
        <ele>146.85</ele>
        <time>2026-05-02T09:33:24.999Z</time>
      </trkpt>
      <trkpt lat="43.79493" lon="4.22755">
        <ele>146.99</ele>
        <time>2026-05-02T09:33:30.378Z</time>
      </trkpt>
      <trkpt lat="43.7949" lon="4.22762">
        <ele>144.71</ele>
        <time>2026-05-02T09:33:35.470Z</time>
      </trkpt>
      <trkpt lat="43.79488" lon="4.22768">
        <ele>144.03</ele>
        <time>2026-05-02T09:33:40.783Z</time>
      </trkpt>
      <trkpt lat="43.7949" lon="4.22777">
        <ele>145.2</ele>
        <time>2026-05-02T09:33:46.355Z</time>
      </trkpt>
      <trkpt lat="43.79488" lon="4.22786">
        <ele>144.03</ele>
        <time>2026-05-02T09:33:51.664Z</time>
      </trkpt>
      <trkpt lat="43.79492" lon="4.22792">
        <ele>144.43</ele>
        <time>2026-05-02T09:33:57.454Z</time>
      </trkpt>
      <trkpt lat="43.79499" lon="4.22796">
        <ele>143.86</ele>
        <time>2026-05-02T09:34:02.469Z</time>
      </trkpt>
      <trkpt lat="43.79504" lon="4.22799">
        <ele>143.26</ele>
        <time>2026-05-02T09:34:07.478Z</time>
      </trkpt>
      <trkpt lat="43.79509" lon="4.22803">
        <ele>144.19</ele>
        <time>2026-05-02T09:34:13.460Z</time>
      </trkpt>
      <trkpt lat="43.79515" lon="4.2281">
        <ele>142.35</ele>
        <time>2026-05-02T09:34:19.436Z</time>
      </trkpt>
      <trkpt lat="43.7952" lon="4.2282">
        <ele>143.11</ele>
        <time>2026-05-02T09:34:25.412Z</time>
      </trkpt>
      <trkpt lat="43.79519" lon="4.22828">
        <ele>142.06</ele>
        <time>2026-05-02T09:34:30.955Z</time>
      </trkpt>
      <trkpt lat="43.79521" lon="4.22834">
        <ele>140.9</ele>
        <time>2026-05-02T09:34:36.221Z</time>
      </trkpt>
      <trkpt lat="43.79524" lon="4.22841">
        <ele>140.82</ele>
        <time>2026-05-02T09:34:41.418Z</time>
      </trkpt>
      <trkpt lat="43.79524" lon="4.22847">
        <ele>141.13</ele>
        <time>2026-05-02T09:34:46.776Z</time>
      </trkpt>
      <trkpt lat="43.79523" lon="4.22849">
        <ele>141.63</ele>
        <time>2026-05-02T09:34:52.377Z</time>
      </trkpt>
      <trkpt lat="43.79522" lon="4.22852">
        <ele>140.94</ele>
        <time>2026-05-02T09:34:57.998Z</time>
      </trkpt>
      <trkpt lat="43.79522" lon="4.22856">
        <ele>138.69</ele>
        <time>2026-05-02T09:35:03.501Z</time>
      </trkpt>
      <trkpt lat="43.79521" lon="4.22866">
        <ele>138.15</ele>
        <time>2026-05-02T09:35:08.776Z</time>
      </trkpt>
      <trkpt lat="43.79516" lon="4.22873">
        <ele>138.02</ele>
        <time>2026-05-02T09:35:14.393Z</time>
      </trkpt>
      <trkpt lat="43.79512" lon="4.22876">
        <ele>137.64</ele>
        <time>2026-05-02T09:35:19.767Z</time>
      </trkpt>
      <trkpt lat="43.79511" lon="4.22883">
        <ele>136.85</ele>
        <time>2026-05-02T09:35:24.855Z</time>
      </trkpt>
      <trkpt lat="43.79511" lon="4.22893">
        <ele>135.62</ele>
        <time>2026-05-02T09:35:30.171Z</time>
      </trkpt>
      <trkpt lat="43.79509" lon="4.22903">
        <ele>136.28</ele>
        <time>2026-05-02T09:35:35.664Z</time>
      </trkpt>
      <trkpt lat="43.79506" lon="4.22911">
        <ele>134.82</ele>
        <time>2026-05-02T09:35:41.154Z</time>
      </trkpt>
      <trkpt lat="43.79502" lon="4.22916">
        <ele>133.66</ele>
        <time>2026-05-02T09:35:46.406Z</time>
      </trkpt>
      <trkpt lat="43.79495" lon="4.22918">
        <ele>133.52</ele>
        <time>2026-05-02T09:35:52.206Z</time>
      </trkpt>
      <trkpt lat="43.79488" lon="4.22921">
        <ele>132.2</ele>
        <time>2026-05-02T09:35:57.397Z</time>
      </trkpt>
      <trkpt lat="43.79486" lon="4.2293">
        <ele>132.12</ele>
        <time>2026-05-02T09:36:02.931Z</time>
      </trkpt>
      <trkpt lat="43.79481" lon="4.22936">
        <ele>132.85</ele>
        <time>2026-05-02T09:36:08.494Z</time>
      </trkpt>
      <trkpt lat="43.79479" lon="4.22944">
        <ele>130.49</ele>
        <time>2026-05-02T09:36:13.936Z</time>
      </trkpt>
      <trkpt lat="43.79479" lon="4.22952">
        <ele>130.55</ele>
        <time>2026-05-02T09:36:19.452Z</time>
      </trkpt>
      <trkpt lat="43.79479" lon="4.22957">
        <ele>129.84</ele>
        <time>2026-05-02T09:36:25.109Z</time>
      </trkpt>
      <trkpt lat="43.79477" lon="4.22961">
        <ele>129.08</ele>
        <time>2026-05-02T09:36:30.347Z</time>
      </trkpt>
      <trkpt lat="43.79475" lon="4.22965">
        <ele>127.59</ele>
        <time>2026-05-02T09:36:35.493Z</time>
      </trkpt>
      <trkpt lat="43.7947" lon="4.22968">
        <ele>127.09</ele>
        <time>2026-05-02T09:36:41.408Z</time>
      </trkpt>
      <trkpt lat="43.79466" lon="4.22975">
        <ele>125.98</ele>
        <time>2026-05-02T09:36:47.413Z</time>
      </trkpt>
      <trkpt lat="43.79466" lon="4.22979">
        <ele>125</ele>
        <time>2026-05-02T09:36:53.420Z</time>
      </trkpt>
      <trkpt lat="43.79466" lon="4.22984">
        <ele>123.99</ele>
        <time>2026-05-02T09:36:58.831Z</time>
      </trkpt>
      <trkpt lat="43.79465" lon="4.22988">
        <ele>123.32</ele>
        <time>2026-05-02T09:37:03.872Z</time>
      </trkpt>
      <trkpt lat="43.79465" lon="4.22993">
        <ele>121.92</ele>
        <time>2026-05-02T09:37:09.208Z</time>
      </trkpt>
      <trkpt lat="43.79464" lon="4.23001">
        <ele>119.56</ele>
        <time>2026-05-02T09:37:14.508Z</time>
      </trkpt>
      <trkpt lat="43.79461" lon="4.23003">
        <ele>119.99</ele>
        <time>2026-05-02T09:37:20.077Z</time>
      </trkpt>
      <trkpt lat="43.79458" lon="4.23003">
        <ele>120.89</ele>
        <time>2026-05-02T09:37:25.971Z</time>
      </trkpt>
      <trkpt lat="43.79453" lon="4.23001">
        <ele>119.26</ele>
        <time>2026-05-02T09:37:31.408Z</time>
      </trkpt>
      <trkpt lat="43.79448" lon="4.23004">
        <ele>118.38</ele>
        <time>2026-05-02T09:37:36.954Z</time>
      </trkpt>
      <trkpt lat="43.79442" lon="4.23008">
        <ele>116.79</ele>
        <time>2026-05-02T09:37:42.146Z</time>
      </trkpt>
      <trkpt lat="43.79436" lon="4.23009">
        <ele>116.6</ele>
        <time>2026-05-02T09:37:47.872Z</time>
      </trkpt>
      <trkpt lat="43.79433" lon="4.2301">
        <ele>116.49</ele>
        <time>2026-05-02T09:37:53.349Z</time>
      </trkpt>
      <trkpt lat="43.79433" lon="4.23009">
        <ele>115.71</ele>
        <time>2026-05-02T09:37:59.005Z</time>
      </trkpt>
      <trkpt lat="43.79428" lon="4.2301">
        <ele>114.79</ele>
        <time>2026-05-02T09:38:04.412Z</time>
      </trkpt>
      <trkpt lat="43.79419" lon="4.23011">
        <ele>114.1</ele>
        <time>2026-05-02T09:38:10.051Z</time>
      </trkpt>
      <trkpt lat="43.79411" lon="4.23011">
        <ele>112.53</ele>
        <time>2026-05-02T09:38:15.190Z</time>
      </trkpt>
      <trkpt lat="43.79406" lon="4.2301">
        <ele>111.47</ele>
        <time>2026-05-02T09:38:20.471Z</time>
      </trkpt>
      <trkpt lat="43.79399" lon="4.23014">
        <ele>111.43</ele>
        <time>2026-05-02T09:38:25.659Z</time>
      </trkpt>
      <trkpt lat="43.79393" lon="4.23015">
        <ele>110.7</ele>
        <time>2026-05-02T09:38:30.992Z</time>
      </trkpt>
      <trkpt lat="43.79387" lon="4.23019">
        <ele>108.69</ele>
        <time>2026-05-02T09:38:36.708Z</time>
      </trkpt>
      <trkpt lat="43.79383" lon="4.23025">
        <ele>107.36</ele>
        <time>2026-05-02T09:38:42.153Z</time>
      </trkpt>
      <trkpt lat="43.79382" lon="4.23029">
        <ele>106.83</ele>
        <time>2026-05-02T09:38:47.494Z</time>
      </trkpt>
      <trkpt lat="43.79378" lon="4.23034">
        <ele>106.67</ele>
        <time>2026-05-02T09:38:53.170Z</time>
      </trkpt>
      <trkpt lat="43.79373" lon="4.23036">
        <ele>106.06</ele>
        <time>2026-05-02T09:38:58.266Z</time>
      </trkpt>
      <trkpt lat="43.79372" lon="4.2304">
        <ele>104.21</ele>
        <time>2026-05-02T09:39:03.467Z</time>
      </trkpt>
      <trkpt lat="43.79369" lon="4.23043">
        <ele>102.73</ele>
        <time>2026-05-02T09:39:08.729Z</time>
      </trkpt>
      <trkpt lat="43.79365" lon="4.23046">
        <ele>101.9</ele>
        <time>2026-05-02T09:39:14.308Z</time>
      </trkpt>
      <trkpt lat="43.7936" lon="4.23051">
        <ele>101.59</ele>
        <time>2026-05-02T09:39:19.671Z</time>
      </trkpt>
      <trkpt lat="43.79355" lon="4.23054">
        <ele>101.67</ele>
        <time>2026-05-02T09:39:25.113Z</time>
      </trkpt>
      <trkpt lat="43.79351" lon="4.23056">
        <ele>99.39</ele>
        <time>2026-05-02T09:39:30.392Z</time>
      </trkpt>
      <trkpt lat="43.79348" lon="4.23056">
        <ele>97.44</ele>
        <time>2026-05-02T09:39:35.407Z</time>
      </trkpt>
      <trkpt lat="43.79343" lon="4.23057">
        <ele>97.09</ele>
        <time>2026-05-02T09:39:40.774Z</time>
      </trkpt>
      <trkpt lat="43.79339" lon="4.2306">
        <ele>97.62</ele>
        <time>2026-05-02T09:39:46.312Z</time>
      </trkpt>
      <trkpt lat="43.79334" lon="4.23065">
        <ele>96.5</ele>
        <time>2026-05-02T09:39:52.374Z</time>
      </trkpt>
      <trkpt lat="43.7933" lon="4.23068">
        <ele>95.99</ele>
        <time>2026-05-02T09:39:57.389Z</time>
      </trkpt>
      <trkpt lat="43.79326" lon="4.2307">
        <ele>94.81</ele>
        <time>2026-05-02T09:40:02.871Z</time>
      </trkpt>
      <trkpt lat="43.79321" lon="4.23074">
        <ele>92.84</ele>
        <time>2026-05-02T09:40:08.277Z</time>
      </trkpt>
      <trkpt lat="43.79315" lon="4.23081">
        <ele>91.29</ele>
        <time>2026-05-02T09:40:14.341Z</time>
      </trkpt>
      <trkpt lat="43.79314" lon="4.23088">
        <ele>91.25</ele>
        <time>2026-05-02T09:40:19.801Z</time>
      </trkpt>
      <trkpt lat="43.79316" lon="4.23096">
        <ele>90.03</ele>
        <time>2026-05-02T09:40:24.976Z</time>
      </trkpt>
      <trkpt lat="43.79316" lon="4.231">
        <ele>89.02</ele>
        <time>2026-05-02T09:40:30.372Z</time>
      </trkpt>
      <trkpt lat="43.79314" lon="4.23105">
        <ele>87.59</ele>
        <time>2026-05-02T09:40:36.501Z</time>
      </trkpt>
      <trkpt lat="43.79311" lon="4.23105">
        <ele>86.38</ele>
        <time>2026-05-02T09:40:41.918Z</time>
      </trkpt>
      <trkpt lat="43.7931" lon="4.23111">
        <ele>85.74</ele>
        <time>2026-05-02T09:40:46.960Z</time>
      </trkpt>
      <trkpt lat="43.79308" lon="4.23115">
        <ele>86.06</ele>
        <time>2026-05-02T09:40:52.354Z</time>
      </trkpt>
      <trkpt lat="43.7931" lon="4.23122">
        <ele>84.64</ele>
        <time>2026-05-02T09:40:57.370Z</time>
      </trkpt>
      <trkpt lat="43.79311" lon="4.23121">
        <ele>83.63</ele>
        <time>2026-05-02T09:41:20.418Z</time>
      </trkpt>
      <trkpt lat="43.79311" lon="4.2312">
        <ele>83.16</ele>
        <time>2026-05-02T09:41:26.394Z</time>
      </trkpt>
      <trkpt lat="43.79312" lon="4.23119">
        <ele>81.48</ele>
        <time>2026-05-02T09:41:49.337Z</time>
      </trkpt>
    </trkseg>
  </trk>
</gpx>